AZU8901 LPPT-SBKP
Flight info
| Callsign | AZU8901 |
|---|---|
| Flight time | 9h 54m |
| Altitude | 19000 |
| Route | ESP B18 GANSU/N0478F350 DCT NARTA DCT SNT/N0478F360 Q205 MADAT/N0477F350 DCT NELSO/N0478F360 N741 ERONI/N0478F370 N741 EDUMO UN741 MERUD/N0475F380 UN741 SIGEB/N0473F400 UN741 GEVMI UM654 ASDAS UN741 VULAD UM654 DEVIR/N0473F410 UZ2 ENTIT |
| Aircraft | B772/H-SDE2E3FGHIJ5LORVWXY/LB1D1 |
Departure
| Time | 2026-05-08 13:57 |
|---|---|
| Airport | Lisbon Humberto Delgado Airport (LPPT) |
Arrival
| Time | 2026-05-08 23:51 |
|---|---|
| Airport | Viracopos International Airport (SBKP) |
| Time | Latitude | Longitude | Altitude | Speed | Heading |
|---|---|---|---|---|---|
| 2026-05-08 12:58 | 38.77488 | -9.13170 | 350 ft | 0 kts | 78° |
| 2026-05-08 13:44 | 38.77485 | -9.13187 | 353 ft | 4 kts | 76° |
| 2026-05-08 13:45 | 38.77477 | -9.13220 | 353 ft | 4 kts | 69° |
| 2026-05-08 13:45 | 38.77466 | -9.13252 | 353 ft | 4 kts | 57° |
| 2026-05-08 13:45 | 38.77449 | -9.13276 | 353 ft | 4 kts | 24° |
| 2026-05-08 13:45 | 38.77436 | -9.13281 | 353 ft | 1 kts | 348° |
| 2026-05-08 13:48 | 38.77494 | -9.13297 | 352 ft | 13 kts | 348° |
| 2026-05-08 13:49 | 38.77586 | -9.13317 | 342 ft | 13 kts | 355° |
| 2026-05-08 13:49 | 38.77678 | -9.13326 | 350 ft | 13 kts | 352° |
| 2026-05-08 13:49 | 38.77770 | -9.13348 | 355 ft | 13 kts | 348° |
| 2026-05-08 13:49 | 38.77881 | -9.13380 | 356 ft | 20 kts | 348° |
| 2026-05-08 13:50 | 38.78015 | -9.13411 | 366 ft | 20 kts | 3° |
| 2026-05-08 13:50 | 38.78144 | -9.13357 | 369 ft | 20 kts | 22° |
| 2026-05-08 13:50 | 38.78270 | -9.13291 | 366 ft | 20 kts | 21° |
| 2026-05-08 13:50 | 38.78397 | -9.13228 | 369 ft | 20 kts | 15° |
| 2026-05-08 13:51 | 38.78524 | -9.13270 | 369 ft | 20 kts | 316° |
| 2026-05-08 13:51 | 38.78625 | -9.13377 | 367 ft | 20 kts | 345° |
| 2026-05-08 13:51 | 38.78759 | -9.13416 | 364 ft | 20 kts | 348° |
| 2026-05-08 13:51 | 38.78914 | -9.13421 | 360 ft | 24 kts | 21° |
| 2026-05-08 13:52 | 38.79072 | -9.13339 | 359 ft | 25 kts | 22° |
| 2026-05-08 13:52 | 38.79230 | -9.13254 | 359 ft | 31 kts | 22° |
| 2026-05-08 13:52 | 38.79420 | -9.13153 | 366 ft | 27 kts | 24° |
| 2026-05-08 13:52 | 38.79592 | -9.13059 | 368 ft | 26 kts | 23° |
| 2026-05-08 13:53 | 38.79752 | -9.12971 | 365 ft | 18 kts | 32° |
| 2026-05-08 13:53 | 38.79770 | -9.12907 | 363 ft | 0 kts | 96° |
| 2026-05-08 13:53 | 38.79769 | -9.12905 | 360 ft | 1 kts | 100° |
| 2026-05-08 13:53 | 38.79762 | -9.12872 | 359 ft | 6 kts | 106° |
| 2026-05-08 13:54 | 38.79744 | -9.12815 | 365 ft | 7 kts | 114° |
| 2026-05-08 13:54 | 38.79709 | -9.12765 | 363 ft | 8 kts | 142° |
| 2026-05-08 13:54 | 38.79659 | -9.12774 | 357 ft | 8 kts | 207° |
| 2026-05-08 13:54 | 38.79625 | -9.12793 | 362 ft | 0 kts | 203° |
| 2026-05-08 13:56 | 38.79593 | -9.12811 | 360 ft | 29 kts | 202° |
| 2026-05-08 13:56 | 38.79072 | -9.13090 | 364 ft | 130 kts | 202° |
| 2026-05-08 13:57 | 38.78027 | -9.13632 | 825 ft | 172 kts | 203° |
| 2026-05-08 13:57 | 38.76993 | -9.14219 | 2373 ft | 154 kts | 201° |
| 2026-05-08 13:57 | 38.75978 | -9.14798 | 3287 ft | 170 kts | 202° |
| 2026-05-08 13:57 | 38.74845 | -9.15448 | 3746 ft | 194 kts | 201° |
| 2026-05-08 13:58 | 38.73528 | -9.16143 | 4262 ft | 209 kts | 199° |
| 2026-05-08 13:58 | 38.72138 | -9.16856 | 4889 ft | 224 kts | 200° |
| 2026-05-08 13:58 | 38.70621 | -9.17643 | 5415 ft | 242 kts | 200° |
| 2026-05-08 13:58 | 38.69039 | -9.18473 | 6263 ft | 249 kts | 200° |
| 2026-05-08 13:59 | 38.67421 | -9.19326 | 7080 ft | 254 kts | 200° |
| 2026-05-08 13:59 | 38.65780 | -9.20192 | 8068 ft | 256 kts | 201° |
| 2026-05-08 13:59 | 38.64124 | -9.21063 | 9001 ft | 259 kts | 200° |
| 2026-05-08 13:59 | 38.62395 | -9.21777 | 9738 ft | 264 kts | 195° |
| 2026-05-08 14:00 | 38.60606 | -9.22384 | 9989 ft | 268 kts | 194° |
| 2026-05-08 14:00 | 38.58803 | -9.22992 | 9980 ft | 267 kts | 194° |
| 2026-05-08 14:00 | 38.57012 | -9.23605 | 9983 ft | 266 kts | 195° |
| 2026-05-08 14:00 | 38.55255 | -9.24322 | 9983 ft | 266 kts | 202° |
| 2026-05-08 14:01 | 38.53576 | -9.25337 | 9989 ft | 268 kts | 206° |
| 2026-05-08 14:01 | 38.51914 | -9.26428 | 9987 ft | 270 kts | 206° |
| 2026-05-08 14:01 | 38.50241 | -9.27529 | 9991 ft | 271 kts | 206° |
| 2026-05-08 14:01 | 38.48562 | -9.28621 | 9981 ft | 271 kts | 206° |
| 2026-05-08 14:02 | 38.46878 | -9.29705 | 9983 ft | 271 kts | 205° |
| 2026-05-08 14:02 | 38.45196 | -9.30779 | 9977 ft | 270 kts | 205° |
| 2026-05-08 14:02 | 38.43521 | -9.31843 | 9973 ft | 268 kts | 205° |
| 2026-05-08 14:02 | 38.41854 | -9.32897 | 9975 ft | 267 kts | 205° |
| 2026-05-08 14:03 | 38.40193 | -9.33946 | 9975 ft | 266 kts | 205° |
| 2026-05-08 14:03 | 38.38539 | -9.34988 | 9974 ft | 265 kts | 205° |
| 2026-05-08 14:03 | 38.36889 | -9.36027 | 9977 ft | 264 kts | 205° |
| 2026-05-08 14:03 | 38.35240 | -9.37063 | 9981 ft | 264 kts | 205° |
| 2026-05-08 14:04 | 38.33588 | -9.38100 | 9984 ft | 265 kts | 205° |
| 2026-05-08 14:04 | 38.31932 | -9.39139 | 9975 ft | 266 kts | 205° |
| 2026-05-08 14:04 | 38.30272 | -9.40181 | 9968 ft | 266 kts | 205° |
| 2026-05-08 14:04 | 38.28609 | -9.41223 | 9972 ft | 267 kts | 205° |
| 2026-05-08 14:05 | 38.26942 | -9.42267 | 9971 ft | 267 kts | 205° |
| 2026-05-08 14:05 | 38.25276 | -9.43311 | 9977 ft | 267 kts | 205° |
| 2026-05-08 14:05 | 38.23635 | -9.44338 | 9967 ft | 266 kts | 205° |
| 2026-05-08 14:05 | 38.21978 | -9.45376 | 9973 ft | 265 kts | 205° |
| 2026-05-08 14:06 | 38.20325 | -9.46409 | 9980 ft | 265 kts | 205° |
| 2026-05-08 14:06 | 38.18674 | -9.47441 | 9983 ft | 264 kts | 205° |
| 2026-05-08 14:06 | 38.17025 | -9.48472 | 9979 ft | 264 kts | 205° |
| 2026-05-08 14:06 | 38.15379 | -9.49500 | 9974 ft | 263 kts | 205° |
| 2026-05-08 14:07 | 38.13734 | -9.50527 | 9973 ft | 264 kts | 205° |
| 2026-05-08 14:07 | 38.12085 | -9.51556 | 9966 ft | 265 kts | 205° |
| 2026-05-08 14:07 | 38.10429 | -9.52589 | 9972 ft | 265 kts | 205° |
| 2026-05-08 14:07 | 38.08772 | -9.53622 | 9969 ft | 266 kts | 205° |
| 2026-05-08 14:08 | 38.07117 | -9.54654 | 9968 ft | 264 kts | 205° |
| 2026-05-08 14:08 | 38.05466 | -9.55683 | 9959 ft | 265 kts | 205° |
| 2026-05-08 14:08 | 38.03817 | -9.56709 | 9964 ft | 264 kts | 205° |
| 2026-05-08 14:08 | 38.02165 | -9.57736 | 9965 ft | 264 kts | 205° |
| 2026-05-08 14:09 | 38.00516 | -9.58763 | 9973 ft | 264 kts | 206° |
| 2026-05-08 14:09 | 37.98970 | -9.60005 | 9973 ft | 264 kts | 216° |
| 2026-05-08 14:09 | 37.97548 | -9.61491 | 9975 ft | 266 kts | 218° |
| 2026-05-08 14:09 | 37.96147 | -9.63029 | 9971 ft | 267 kts | 218° |
| 2026-05-08 14:10 | 37.94738 | -9.64578 | 9965 ft | 269 kts | 219° |
| 2026-05-08 14:10 | 37.93322 | -9.66127 | 9974 ft | 268 kts | 218° |
| 2026-05-08 14:10 | 37.91909 | -9.67661 | 9967 ft | 266 kts | 218° |
| 2026-05-08 14:10 | 37.90502 | -9.69179 | 9961 ft | 264 kts | 218° |
| 2026-05-08 14:11 | 37.89098 | -9.70688 | 9966 ft | 265 kts | 218° |
| 2026-05-08 14:11 | 37.87685 | -9.72200 | 9962 ft | 266 kts | 218° |
| 2026-05-08 14:11 | 37.86269 | -9.73713 | 9972 ft | 267 kts | 218° |
| 2026-05-08 14:11 | 37.84847 | -9.75228 | 9970 ft | 267 kts | 217° |
| 2026-05-08 14:12 | 37.83429 | -9.76739 | 9969 ft | 267 kts | 217° |
| 2026-05-08 14:12 | 37.82007 | -9.78251 | 9966 ft | 267 kts | 218° |
| 2026-05-08 14:12 | 37.80588 | -9.79760 | 9965 ft | 267 kts | 218° |
| 2026-05-08 14:12 | 37.79165 | -9.81271 | 9966 ft | 267 kts | 217° |
| 2026-05-08 14:13 | 37.77747 | -9.82776 | 9961 ft | 266 kts | 218° |
| 2026-05-08 14:13 | 37.76350 | -9.84259 | 9968 ft | 266 kts | 217° |
| 2026-05-08 14:13 | 37.74933 | -9.85761 | 9958 ft | 266 kts | 217° |
| 2026-05-08 14:13 | 37.73513 | -9.87265 | 9963 ft | 267 kts | 217° |
| 2026-05-08 14:14 | 37.72090 | -9.88772 | 9964 ft | 267 kts | 217° |
| 2026-05-08 14:14 | 37.70664 | -9.90281 | 9960 ft | 268 kts | 217° |
| 2026-05-08 14:14 | 37.69239 | -9.91789 | 9961 ft | 268 kts | 217° |
| 2026-05-08 14:14 | 37.67811 | -9.93299 | 9956 ft | 268 kts | 217° |
| 2026-05-08 14:15 | 37.66385 | -9.94807 | 9955 ft | 267 kts | 217° |
| 2026-05-08 14:15 | 37.64959 | -9.96313 | 9960 ft | 267 kts | 217° |
| 2026-05-08 14:15 | 37.63533 | -9.97816 | 9962 ft | 267 kts | 217° |
| 2026-05-08 14:15 | 37.62110 | -9.99319 | 9958 ft | 267 kts | 217° |
| 2026-05-08 14:16 | 37.60717 | -10.00787 | 9956 ft | 267 kts | 217° |
| 2026-05-08 14:16 | 37.59293 | -10.02290 | 9953 ft | 267 kts | 217° |
| 2026-05-08 14:16 | 37.57868 | -10.03794 | 9951 ft | 267 kts | 217° |
| 2026-05-08 14:16 | 37.56442 | -10.05297 | 9945 ft | 267 kts | 217° |
| 2026-05-08 14:17 | 37.55020 | -10.06798 | 9950 ft | 266 kts | 217° |
| 2026-05-08 14:17 | 37.53598 | -10.08298 | 9956 ft | 267 kts | 217° |
| 2026-05-08 14:17 | 37.52176 | -10.09798 | 9950 ft | 267 kts | 217° |
| 2026-05-08 14:17 | 37.50753 | -10.11299 | 9949 ft | 267 kts | 217° |
| 2026-05-08 14:18 | 37.49332 | -10.12798 | 9950 ft | 267 kts | 217° |
| 2026-05-08 14:18 | 37.47909 | -10.14299 | 9943 ft | 267 kts | 217° |
| 2026-05-08 14:18 | 37.46488 | -10.15797 | 9946 ft | 267 kts | 217° |
| 2026-05-08 14:18 | 37.45066 | -10.17296 | 9945 ft | 267 kts | 217° |
| 2026-05-08 14:19 | 37.43643 | -10.18795 | 9945 ft | 267 kts | 217° |
| 2026-05-08 14:19 | 37.42241 | -10.20273 | 9943 ft | 266 kts | 217° |
| 2026-05-08 14:19 | 37.40803 | -10.21789 | 9965 ft | 266 kts | 217° |
| 2026-05-08 14:19 | 37.39400 | -10.23267 | 9962 ft | 267 kts | 217° |
| 2026-05-08 14:20 | 37.37957 | -10.24787 | 9934 ft | 267 kts | 217° |
| 2026-05-08 14:20 | 37.36556 | -10.26262 | 9927 ft | 265 kts | 217° |
| 2026-05-08 14:20 | 37.35152 | -10.27744 | 9938 ft | 262 kts | 217° |
| 2026-05-08 14:20 | 37.33759 | -10.29214 | 9955 ft | 261 kts | 217° |
| 2026-05-08 14:21 | 37.32374 | -10.30676 | 9951 ft | 261 kts | 217° |
| 2026-05-08 14:21 | 37.30976 | -10.32150 | 9949 ft | 263 kts | 217° |
| 2026-05-08 14:21 | 37.29567 | -10.33635 | 9954 ft | 265 kts | 217° |
| 2026-05-08 14:21 | 37.28109 | -10.35167 | 10110 ft | 286 kts | 217° |
| 2026-05-08 14:22 | 37.26532 | -10.36813 | 10562 ft | 303 kts | 217° |
| 2026-05-08 14:22 | 37.24889 | -10.38522 | 11268 ft | 310 kts | 217° |
| 2026-05-08 14:22 | 37.23209 | -10.40266 | 12092 ft | 316 kts | 218° |
| 2026-05-08 14:22 | 37.22083 | -10.41434 | 12689 ft | 318 kts | 218° |
| 2026-05-08 14:23 | 37.20406 | -10.43334 | 13529 ft | 325 kts | 224° |
| 2026-05-08 14:23 | 37.18970 | -10.45502 | 14274 ft | 331 kts | 231° |
| 2026-05-08 14:23 | 37.17681 | -10.47918 | 15062 ft | 335 kts | 234° |
| 2026-05-08 14:23 | 37.16402 | -10.50370 | 15933 ft | 336 kts | 234° |
| 2026-05-08 14:24 | 37.15133 | -10.52811 | 16941 ft | 333 kts | 234° |
| 2026-05-08 14:24 | 37.13875 | -10.55228 | 17974 ft | 329 kts | 234° |
| 2026-05-08 14:24 | 37.12623 | -10.57632 | 18708 ft | 330 kts | 234° |
| 2026-05-08 14:24 | 37.11406 | -10.60023 | 19450 ft | 322 kts | 234° |
| 2026-05-08 14:25 | 37.10226 | -10.62386 | 20184 ft | 318 kts | 234° |
| 2026-05-08 14:25 | 37.09070 | -10.64725 | 20953 ft | 314 kts | 234° |
| 2026-05-08 14:25 | 37.07936 | -10.67039 | 21741 ft | 309 kts | 234° |
| 2026-05-08 14:25 | 37.06826 | -10.69321 | 22548 ft | 304 kts | 234° |
| 2026-05-08 14:26 | 37.05746 | -10.71562 | 23374 ft | 297 kts | 234° |
| 2026-05-08 14:26 | 37.04701 | -10.73751 | 24056 ft | 289 kts | 234° |
| 2026-05-08 14:26 | 37.03691 | -10.75883 | 24771 ft | 280 kts | 234° |
| 2026-05-08 14:26 | 37.02720 | -10.77946 | 25487 ft | 269 kts | 234° |
| 2026-05-08 14:27 | 37.01768 | -10.79888 | 26205 ft | 254 kts | 233° |
| 2026-05-08 14:27 | 37.00886 | -10.81736 | 26953 ft | 240 kts | 234° |
| 2026-05-08 14:27 | 37.00080 | -10.83492 | 27659 ft | 226 kts | 234° |
| 2026-05-08 14:27 | 36.99316 | -10.85177 | 28046 ft | 223 kts | 234° |
| 2026-05-08 14:28 | 36.98539 | -10.86885 | 28089 ft | 231 kts | 234° |
| 2026-05-08 14:28 | 36.97797 | -10.88491 | 27977 ft | 244 kts | 234° |
| 2026-05-08 14:28 | 36.96914 | -10.90367 | 27916 ft | 256 kts | 234° |
| 2026-05-08 14:28 | 36.95967 | -10.92323 | 27890 ft | 270 kts | 234° |
| 2026-05-08 14:29 | 36.94963 | -10.94369 | 27916 ft | 283 kts | 233° |
| 2026-05-08 14:29 | 36.93929 | -10.96502 | 27860 ft | 288 kts | 234° |
| 2026-05-08 14:29 | 36.92897 | -10.98656 | 27820 ft | 289 kts | 234° |
| 2026-05-08 14:29 | 36.91890 | -11.00767 | 27819 ft | 289 kts | 234° |
| 2026-05-08 14:30 | 36.90864 | -11.02923 | 27810 ft | 288 kts | 234° |
| 2026-05-08 14:30 | 36.89856 | -11.05043 | 27806 ft | 288 kts | 234° |
| 2026-05-08 14:30 | 36.88832 | -11.07196 | 27810 ft | 288 kts | 234° |
| 2026-05-08 14:30 | 36.87799 | -11.09362 | 27822 ft | 295 kts | 234° |
| 2026-05-08 14:31 | 36.86720 | -11.11610 | 27831 ft | 309 kts | 234° |
| 2026-05-08 14:31 | 36.85589 | -11.13947 | 27893 ft | 320 kts | 234° |
| 2026-05-08 14:31 | 36.84417 | -11.16354 | 28016 ft | 329 kts | 234° |
| 2026-05-08 14:32 | 36.81967 | -11.21352 | 28279 ft | 347 kts | 234° |
| 2026-05-08 14:32 | 36.80687 | -11.23946 | 28396 ft | 355 kts | 234° |
| 2026-05-08 14:32 | 36.79373 | -11.26599 | 28537 ft | 363 kts | 234° |
| 2026-05-08 14:32 | 36.78029 | -11.29302 | 28670 ft | 371 kts | 234° |
| 2026-05-08 14:33 | 36.76653 | -11.32061 | 28811 ft | 378 kts | 234° |
| 2026-05-08 14:33 | 36.75251 | -11.34865 | 28926 ft | 385 kts | 234° |
| 2026-05-08 14:33 | 36.73820 | -11.37722 | 29068 ft | 391 kts | 234° |
| 2026-05-08 14:33 | 36.72366 | -11.40616 | 29191 ft | 396 kts | 234° |
| 2026-05-08 14:34 | 36.70900 | -11.43530 | 29294 ft | 397 kts | 234° |
| 2026-05-08 14:34 | 36.69438 | -11.46438 | 29411 ft | 396 kts | 234° |
| 2026-05-08 14:34 | 36.67988 | -11.49323 | 29903 ft | 383 kts | 234° |
| 2026-05-08 14:34 | 36.66573 | -11.52149 | 30152 ft | 388 kts | 234° |
| 2026-05-08 14:35 | 36.63663 | -11.57939 | 30342 ft | 399 kts | 234° |
| 2026-05-08 14:35 | 36.62187 | -11.60870 | 30447 ft | 400 kts | 234° |
| 2026-05-08 14:35 | 36.60711 | -11.63800 | 30548 ft | 400 kts | 234° |
| 2026-05-08 14:36 | 36.57778 | -11.69621 | 30732 ft | 400 kts | 234° |
| 2026-05-08 14:36 | 36.56302 | -11.72550 | 30839 ft | 400 kts | 234° |
| 2026-05-08 14:36 | 36.54825 | -11.75479 | 30927 ft | 400 kts | 234° |
| 2026-05-08 14:37 | 36.53348 | -11.78408 | 31033 ft | 400 kts | 234° |
| 2026-05-08 14:37 | 36.51876 | -11.81326 | 31125 ft | 400 kts | 234° |
| 2026-05-08 14:37 | 36.50400 | -11.84251 | 31234 ft | 399 kts | 234° |
| 2026-05-08 14:37 | 36.48924 | -11.87177 | 31328 ft | 399 kts | 234° |
| 2026-05-08 14:38 | 36.46613 | -11.93443 | 31523 ft | 405 kts | 247° |
| 2026-05-08 14:38 | 36.44782 | -12.00048 | 31729 ft | 404 kts | 240° |
| 2026-05-08 14:39 | 36.43493 | -12.03064 | 31833 ft | 402 kts | 235° |
| 2026-05-08 14:39 | 36.41925 | -12.05933 | 31986 ft | 402 kts | 231° |
| 2026-05-08 14:39 | 36.38349 | -12.11290 | 32182 ft | 404 kts | 226° |
| 2026-05-08 14:40 | 36.34582 | -12.16435 | 32755 ft | 394 kts | 226° |
| 2026-05-08 14:40 | 36.32767 | -12.18892 | 32716 ft | 378 kts | 226° |
| 2026-05-08 14:40 | 36.31032 | -12.21245 | 32727 ft | 363 kts | 226° |
| 2026-05-08 14:41 | 36.27652 | -12.25841 | 32747 ft | 360 kts | 226° |
| 2026-05-08 14:41 | 36.24276 | -12.30438 | 32744 ft | 361 kts | 226° |
| 2026-05-08 14:42 | 36.20895 | -12.35041 | 32743 ft | 361 kts | 226° |
| 2026-05-08 14:42 | 36.17512 | -12.39643 | 32708 ft | 362 kts | 226° |
| 2026-05-08 14:43 | 36.14054 | -12.44338 | 32754 ft | 376 kts | 226° |
| 2026-05-08 14:43 | 36.10476 | -12.49192 | 32758 ft | 388 kts | 226° |
| 2026-05-08 14:44 | 36.06793 | -12.54182 | 32739 ft | 397 kts | 227° |
| 2026-05-08 14:44 | 36.03026 | -12.59274 | 32757 ft | 405 kts | 227° |
| 2026-05-08 14:45 | 35.99214 | -12.64419 | 32738 ft | 407 kts | 226° |
| 2026-05-08 14:45 | 35.95382 | -12.69585 | 32750 ft | 408 kts | 226° |
| 2026-05-08 14:46 | 35.91544 | -12.74753 | 32746 ft | 408 kts | 226° |
| 2026-05-08 14:46 | 35.87707 | -12.79912 | 32753 ft | 409 kts | 226° |
| 2026-05-08 14:47 | 35.83884 | -12.85043 | 32751 ft | 409 kts | 226° |
| 2026-05-08 14:47 | 35.80029 | -12.90211 | 32716 ft | 409 kts | 227° |
| 2026-05-08 14:48 | 35.76183 | -12.95356 | 32739 ft | 408 kts | 227° |
| 2026-05-08 14:48 | 35.72391 | -13.00424 | 32745 ft | 406 kts | 227° |
| 2026-05-08 14:49 | 35.68564 | -13.05530 | 32751 ft | 405 kts | 227° |
| 2026-05-08 14:49 | 35.64741 | -13.10623 | 32748 ft | 405 kts | 227° |
| 2026-05-08 14:50 | 35.60918 | -13.15709 | 32764 ft | 407 kts | 227° |
| 2026-05-08 14:50 | 35.57042 | -13.20856 | 32749 ft | 413 kts | 227° |
| 2026-05-08 14:51 | 35.53132 | -13.26041 | 32748 ft | 414 kts | 227° |
| 2026-05-08 14:51 | 35.49215 | -13.31227 | 32740 ft | 411 kts | 227° |
| 2026-05-08 14:52 | 35.43480 | -13.38806 | 32752 ft | 405 kts | 227° |
| 2026-05-08 14:53 | 35.39649 | -13.43859 | 32757 ft | 405 kts | 227° |
| 2026-05-08 14:53 | 35.35811 | -13.48915 | 32756 ft | 405 kts | 227° |
| 2026-05-08 14:54 | 35.31943 | -13.54001 | 32763 ft | 412 kts | 227° |
| 2026-05-08 14:54 | 35.28018 | -13.59155 | 32755 ft | 415 kts | 227° |
| 2026-05-08 14:55 | 35.24073 | -13.64326 | 32755 ft | 416 kts | 227° |
| 2026-05-08 14:55 | 35.20121 | -13.69501 | 32756 ft | 416 kts | 227° |
| 2026-05-08 14:56 | 35.16167 | -13.74668 | 32757 ft | 416 kts | 227° |
| 2026-05-08 14:56 | 35.12222 | -13.79816 | 32751 ft | 415 kts | 227° |
| 2026-05-08 14:57 | 35.08284 | -13.84949 | 32755 ft | 413 kts | 227° |
| 2026-05-08 14:57 | 35.04342 | -13.90078 | 32765 ft | 415 kts | 227° |
| 2026-05-08 14:58 | 35.00401 | -13.95198 | 32762 ft | 418 kts | 227° |
| 2026-05-08 14:58 | 34.96456 | -14.00316 | 32762 ft | 420 kts | 227° |
| 2026-05-08 14:59 | 34.92444 | -14.05513 | 32732 ft | 420 kts | 227° |
| 2026-05-08 14:59 | 34.86531 | -14.13154 | 32753 ft | 411 kts | 227° |
| 2026-05-08 15:00 | 34.82612 | -14.18211 | 32758 ft | 410 kts | 227° |
| 2026-05-08 15:00 | 34.78685 | -14.23272 | 32786 ft | 414 kts | 228° |
| 2026-05-08 15:01 | 34.74684 | -14.28423 | 32776 ft | 423 kts | 228° |
| 2026-05-08 15:01 | 34.70621 | -14.33642 | 32755 ft | 426 kts | 228° |
| 2026-05-08 15:02 | 34.66544 | -14.38870 | 32760 ft | 426 kts | 228° |
| 2026-05-08 15:02 | 34.62472 | -14.44083 | 32736 ft | 420 kts | 228° |
| 2026-05-08 15:03 | 34.58505 | -14.49154 | 32761 ft | 413 kts | 228° |
| 2026-05-08 15:03 | 34.54571 | -14.54178 | 32774 ft | 414 kts | 228° |
| 2026-05-08 15:04 | 34.50594 | -14.59250 | 32780 ft | 416 kts | 229° |
| 2026-05-08 15:04 | 34.46589 | -14.64350 | 32779 ft | 419 kts | 228° |
| 2026-05-08 15:05 | 34.42550 | -14.69485 | 32786 ft | 422 kts | 228° |
| 2026-05-08 15:05 | 34.38486 | -14.74643 | 32784 ft | 424 kts | 228° |
| 2026-05-08 15:06 | 34.34401 | -14.79819 | 32784 ft | 426 kts | 228° |
| 2026-05-08 15:06 | 34.30346 | -14.84948 | 32773 ft | 418 kts | 228° |
| 2026-05-08 15:07 | 34.26338 | -14.90012 | 32781 ft | 416 kts | 228° |
| 2026-05-08 15:07 | 34.22335 | -14.95063 | 32776 ft | 417 kts | 229° |
| 2026-05-08 15:08 | 34.18995 | -14.99273 | 32790 ft | 418 kts | 229° |
| 2026-05-08 15:08 | 34.14323 | -15.05153 | 32794 ft | 421 kts | 229° |
| 2026-05-08 15:09 | 34.10286 | -15.10225 | 32793 ft | 423 kts | 229° |
| 2026-05-08 15:09 | 34.06203 | -15.15346 | 32798 ft | 424 kts | 229° |
| 2026-05-08 15:10 | 34.02105 | -15.20477 | 32797 ft | 424 kts | 229° |
| 2026-05-08 15:10 | 33.98016 | -15.25590 | 32794 ft | 424 kts | 229° |
| 2026-05-08 15:11 | 33.93927 | -15.30697 | 32801 ft | 423 kts | 229° |
| 2026-05-08 15:11 | 33.89846 | -15.35784 | 32797 ft | 422 kts | 229° |
| 2026-05-08 15:12 | 33.85773 | -15.40856 | 32805 ft | 421 kts | 229° |
| 2026-05-08 15:12 | 33.81705 | -15.45914 | 32806 ft | 420 kts | 229° |
| 2026-05-08 15:13 | 33.78328 | -15.50107 | 32807 ft | 420 kts | 229° |
| 2026-05-08 15:13 | 33.74266 | -15.55143 | 32805 ft | 419 kts | 229° |
| 2026-05-08 15:14 | 33.70220 | -15.60154 | 32805 ft | 417 kts | 229° |
| 2026-05-08 15:14 | 33.66189 | -15.65136 | 32825 ft | 416 kts | 229° |
| 2026-05-08 15:15 | 33.62148 | -15.70127 | 32816 ft | 418 kts | 229° |
| 2026-05-08 15:15 | 33.58084 | -15.75139 | 32823 ft | 420 kts | 229° |
| 2026-05-08 15:16 | 33.53992 | -15.80177 | 32823 ft | 423 kts | 229° |
| 2026-05-08 15:16 | 33.49879 | -15.85234 | 32824 ft | 424 kts | 229° |
| 2026-05-08 15:17 | 33.45750 | -15.90301 | 32826 ft | 426 kts | 229° |
| 2026-05-08 15:17 | 33.41622 | -15.95359 | 32804 ft | 420 kts | 230° |
| 2026-05-08 15:18 | 33.37612 | -16.00265 | 32828 ft | 417 kts | 230° |
| 2026-05-08 15:18 | 33.33521 | -16.05271 | 32847 ft | 424 kts | 230° |
| 2026-05-08 15:19 | 33.29376 | -16.10332 | 32841 ft | 427 kts | 230° |
| 2026-05-08 15:19 | 33.25212 | -16.15406 | 32838 ft | 428 kts | 230° |
| 2026-05-08 15:20 | 33.21042 | -16.20480 | 32830 ft | 428 kts | 230° |
| 2026-05-08 15:20 | 33.16875 | -16.25546 | 32831 ft | 427 kts | 230° |
| 2026-05-08 15:21 | 33.12716 | -16.30594 | 32771 ft | 425 kts | 230° |
| 2026-05-08 15:21 | 33.08457 | -16.35379 | 32841 ft | 422 kts | 225° |
| 2026-05-08 15:22 | 33.03573 | -16.39484 | 33022 ft | 434 kts | 220° |
| 2026-05-08 15:22 | 33.01052 | -16.41478 | 33216 ft | 435 kts | 220° |
| 2026-05-08 15:22 | 32.98539 | -16.43472 | 33465 ft | 435 kts | 220° |
| 2026-05-08 15:23 | 32.96025 | -16.45470 | 33729 ft | 435 kts | 220° |
| 2026-05-08 15:23 | 32.93512 | -16.47470 | 33947 ft | 434 kts | 220° |
| 2026-05-08 15:23 | 32.91034 | -16.49445 | 34127 ft | 435 kts | 220° |
| 2026-05-08 15:23 | 32.88517 | -16.51450 | 34309 ft | 435 kts | 220° |
| 2026-05-08 15:24 | 32.86001 | -16.53454 | 34485 ft | 435 kts | 220° |
| 2026-05-08 15:24 | 32.83484 | -16.55458 | 34633 ft | 435 kts | 220° |
| 2026-05-08 15:24 | 32.80990 | -16.57438 | 35074 ft | 428 kts | 220° |
| 2026-05-08 15:24 | 32.78513 | -16.59404 | 35276 ft | 428 kts | 220° |
| 2026-05-08 15:25 | 32.73532 | -16.63364 | 35471 ft | 432 kts | 220° |
| 2026-05-08 15:25 | 32.71034 | -16.65346 | 35656 ft | 432 kts | 220° |
| 2026-05-08 15:25 | 32.68530 | -16.67331 | 35741 ft | 433 kts | 220° |
| 2026-05-08 15:26 | 32.63497 | -16.71317 | 35808 ft | 436 kts | 220° |
| 2026-05-08 15:26 | 32.58422 | -16.75331 | 35834 ft | 440 kts | 220° |
| 2026-05-08 15:27 | 32.53307 | -16.79368 | 35790 ft | 442 kts | 221° |
| 2026-05-08 15:27 | 32.48261 | -16.83336 | 35841 ft | 431 kts | 221° |
| 2026-05-08 15:28 | 32.43276 | -16.87262 | 35862 ft | 430 kts | 221° |
| 2026-05-08 15:28 | 32.38299 | -16.91180 | 35883 ft | 430 kts | 221° |
| 2026-05-08 15:29 | 32.33315 | -16.95096 | 35883 ft | 430 kts | 221° |
| 2026-05-08 15:29 | 32.28321 | -16.99013 | 35889 ft | 431 kts | 221° |
| 2026-05-08 15:30 | 32.23410 | -17.02860 | 35891 ft | 432 kts | 221° |
| 2026-05-08 15:30 | 32.18390 | -17.06787 | 35895 ft | 434 kts | 221° |
| 2026-05-08 15:31 | 32.13345 | -17.10728 | 35899 ft | 436 kts | 221° |
| 2026-05-08 15:31 | 32.08271 | -17.14687 | 35898 ft | 438 kts | 221° |
| 2026-05-08 15:32 | 32.03179 | -17.18654 | 35902 ft | 440 kts | 221° |
| 2026-05-08 15:32 | 31.98077 | -17.22625 | 35905 ft | 441 kts | 221° |
| 2026-05-08 15:33 | 31.92978 | -17.26584 | 35907 ft | 435 kts | 221° |
| 2026-05-08 15:33 | 31.87966 | -17.30471 | 35907 ft | 430 kts | 222° |
| 2026-05-08 15:34 | 31.82979 | -17.34342 | 35915 ft | 428 kts | 222° |
| 2026-05-08 15:34 | 31.78004 | -17.38197 | 35921 ft | 428 kts | 221° |
| 2026-05-08 15:35 | 31.73011 | -17.42061 | 35921 ft | 432 kts | 222° |
| 2026-05-08 15:35 | 31.67947 | -17.45975 | 35933 ft | 439 kts | 222° |
| 2026-05-08 15:36 | 31.62863 | -17.49896 | 35913 ft | 432 kts | 223° |
| 2026-05-08 15:36 | 31.57878 | -17.53737 | 35928 ft | 427 kts | 223° |
| 2026-05-08 15:37 | 31.52921 | -17.57567 | 35925 ft | 427 kts | 223° |
| 2026-05-08 15:37 | 31.47961 | -17.61395 | 35935 ft | 427 kts | 223° |
| 2026-05-08 15:38 | 31.43030 | -17.65191 | 35935 ft | 427 kts | 223° |
| 2026-05-08 15:38 | 31.38052 | -17.69019 | 35937 ft | 428 kts | 223° |
| 2026-05-08 15:39 | 31.33075 | -17.72837 | 35944 ft | 427 kts | 223° |
| 2026-05-08 15:39 | 31.28109 | -17.76642 | 35934 ft | 426 kts | 224° |
| 2026-05-08 15:40 | 31.23148 | -17.80442 | 35941 ft | 426 kts | 224° |
| 2026-05-08 15:40 | 31.18186 | -17.84238 | 35947 ft | 427 kts | 223° |
| 2026-05-08 15:41 | 31.13212 | -17.88038 | 35949 ft | 427 kts | 223° |
| 2026-05-08 15:41 | 31.08231 | -17.91837 | 35951 ft | 428 kts | 223° |
| 2026-05-08 15:42 | 31.03254 | -17.95626 | 35934 ft | 426 kts | 224° |
| 2026-05-08 15:42 | 30.98324 | -17.99375 | 35961 ft | 425 kts | 224° |
| 2026-05-08 15:43 | 30.93466 | -18.03068 | 35966 ft | 424 kts | 224° |
| 2026-05-08 15:43 | 30.88530 | -18.06814 | 35949 ft | 423 kts | 224° |
| 2026-05-08 15:44 | 30.83598 | -18.10551 | 35950 ft | 423 kts | 225° |
| 2026-05-08 15:44 | 30.78668 | -18.14284 | 35964 ft | 423 kts | 225° |
| 2026-05-08 15:45 | 30.73741 | -18.18010 | 35960 ft | 421 kts | 225° |
| 2026-05-08 15:45 | 30.68835 | -18.21715 | 35964 ft | 422 kts | 225° |
| 2026-05-08 15:46 | 30.63914 | -18.25428 | 35971 ft | 422 kts | 225° |
| 2026-05-08 15:46 | 30.58988 | -18.29140 | 35970 ft | 422 kts | 225° |
| 2026-05-08 15:47 | 30.54059 | -18.32849 | 35976 ft | 423 kts | 225° |
| 2026-05-08 15:47 | 30.49125 | -18.36557 | 35978 ft | 423 kts | 225° |
| 2026-05-08 15:48 | 30.41725 | -18.42106 | 35982 ft | 421 kts | 225° |
| 2026-05-08 15:49 | 30.36833 | -18.45772 | 35963 ft | 422 kts | 225° |
| 2026-05-08 15:49 | 30.31925 | -18.49446 | 35975 ft | 422 kts | 225° |
| 2026-05-08 15:50 | 30.26985 | -18.53139 | 35988 ft | 423 kts | 225° |
| 2026-05-08 15:50 | 30.22036 | -18.56834 | 35987 ft | 424 kts | 225° |
| 2026-05-08 15:51 | 30.17136 | -18.60487 | 35990 ft | 425 kts | 225° |
| 2026-05-08 15:51 | 30.12174 | -18.64180 | 35997 ft | 424 kts | 225° |
| 2026-05-08 15:52 | 30.07216 | -18.67867 | 35998 ft | 424 kts | 225° |
| 2026-05-08 15:52 | 30.02253 | -18.71555 | 35998 ft | 425 kts | 225° |
| 2026-05-08 15:53 | 29.97289 | -18.75238 | 36003 ft | 425 kts | 225° |
| 2026-05-08 15:53 | 29.92310 | -18.78927 | 36002 ft | 425 kts | 225° |
| 2026-05-08 15:54 | 29.87341 | -18.82605 | 35986 ft | 424 kts | 225° |
| 2026-05-08 15:54 | 29.82370 | -18.86278 | 35994 ft | 423 kts | 225° |
| 2026-05-08 15:55 | 29.77446 | -18.89914 | 36003 ft | 423 kts | 225° |
| 2026-05-08 15:55 | 29.70007 | -18.95401 | 36005 ft | 424 kts | 225° |
| 2026-05-08 15:56 | 29.65044 | -18.99055 | 36011 ft | 424 kts | 225° |
| 2026-05-08 15:56 | 29.60130 | -19.02669 | 36014 ft | 424 kts | 225° |
| 2026-05-08 15:57 | 29.55150 | -19.06326 | 35981 ft | 425 kts | 225° |
| 2026-05-08 15:57 | 29.50175 | -19.09974 | 36007 ft | 424 kts | 224° |
| 2026-05-08 15:58 | 29.45201 | -19.13619 | 36008 ft | 424 kts | 224° |
| 2026-05-08 15:58 | 29.40219 | -19.17266 | 36014 ft | 425 kts | 224° |
| 2026-05-08 15:59 | 29.35260 | -19.20893 | 36012 ft | 426 kts | 224° |
| 2026-05-08 15:59 | 29.30256 | -19.24546 | 36017 ft | 427 kts | 224° |
| 2026-05-08 16:00 | 29.25242 | -19.28202 | 36037 ft | 427 kts | 224° |
| 2026-05-08 16:00 | 29.20225 | -19.31856 | 36019 ft | 428 kts | 224° |
| 2026-05-08 16:01 | 29.15202 | -19.35510 | 36017 ft | 428 kts | 224° |
| 2026-05-08 16:01 | 29.10179 | -19.39160 | 36021 ft | 428 kts | 224° |
| 2026-05-08 16:02 | 29.05156 | -19.42806 | 36025 ft | 428 kts | 224° |
| 2026-05-08 16:02 | 29.00135 | -19.46446 | 36016 ft | 427 kts | 224° |
| 2026-05-08 16:03 | 28.95972 | -19.49461 | 36032 ft | 427 kts | 224° |
| 2026-05-08 16:03 | 28.90951 | -19.53093 | 36006 ft | 426 kts | 224° |
| 2026-05-08 16:04 | 28.85940 | -19.56714 | 36021 ft | 426 kts | 224° |
| 2026-05-08 16:04 | 28.80932 | -19.60330 | 36031 ft | 426 kts | 224° |
| 2026-05-08 16:05 | 28.75915 | -19.63948 | 36030 ft | 427 kts | 224° |
| 2026-05-08 16:05 | 28.70895 | -19.67563 | 36033 ft | 427 kts | 224° |
| 2026-05-08 16:06 | 28.65866 | -19.71181 | 36033 ft | 427 kts | 224° |
| 2026-05-08 16:06 | 28.60836 | -19.74794 | 35997 ft | 427 kts | 224° |
| 2026-05-08 16:07 | 28.55811 | -19.78400 | 36030 ft | 427 kts | 224° |
| 2026-05-08 16:07 | 28.50778 | -19.82008 | 36025 ft | 428 kts | 224° |
| 2026-05-08 16:08 | 28.45740 | -19.85617 | 36036 ft | 428 kts | 224° |
| 2026-05-08 16:08 | 28.40688 | -19.89230 | 36040 ft | 429 kts | 224° |
| 2026-05-08 16:09 | 28.35630 | -19.92844 | 36039 ft | 430 kts | 224° |
| 2026-05-08 16:09 | 28.30556 | -19.96466 | 35994 ft | 430 kts | 224° |
| 2026-05-08 16:10 | 28.25520 | -20.00055 | 36035 ft | 430 kts | 224° |
| 2026-05-08 16:10 | 28.20474 | -20.03645 | 36043 ft | 431 kts | 223° |
| 2026-05-08 16:11 | 28.15390 | -20.07257 | 36048 ft | 432 kts | 223° |
| 2026-05-08 16:11 | 28.10328 | -20.10851 | 36046 ft | 432 kts | 223° |
| 2026-05-08 16:12 | 28.05218 | -20.14475 | 36037 ft | 432 kts | 223° |
| 2026-05-08 16:12 | 28.00111 | -20.18093 | 35991 ft | 433 kts | 223° |
| 2026-05-08 16:13 | 27.95015 | -20.21699 | 36043 ft | 433 kts | 223° |
| 2026-05-08 16:13 | 27.89929 | -20.25295 | 36053 ft | 434 kts | 223° |
| 2026-05-08 16:14 | 27.84799 | -20.28919 | 36052 ft | 435 kts | 223° |
| 2026-05-08 16:14 | 27.79653 | -20.32548 | 36052 ft | 436 kts | 223° |
| 2026-05-08 16:15 | 27.74499 | -20.36179 | 36057 ft | 437 kts | 223° |
| 2026-05-08 16:15 | 27.69371 | -20.39787 | 36015 ft | 437 kts | 223° |
| 2026-05-08 16:16 | 27.64217 | -20.43409 | 36053 ft | 436 kts | 222° |
| 2026-05-08 16:16 | 27.59061 | -20.47029 | 36060 ft | 437 kts | 222° |
| 2026-05-08 16:17 | 27.53897 | -20.50652 | 36058 ft | 437 kts | 222° |
| 2026-05-08 16:17 | 27.48738 | -20.54267 | 36065 ft | 439 kts | 222° |
| 2026-05-08 16:18 | 27.43551 | -20.57896 | 36063 ft | 439 kts | 222° |
| 2026-05-08 16:18 | 27.38358 | -20.61526 | 36063 ft | 440 kts | 222° |
| 2026-05-08 16:19 | 27.33163 | -20.65152 | 36059 ft | 439 kts | 222° |
| 2026-05-08 16:19 | 27.27961 | -20.68780 | 36065 ft | 440 kts | 222° |
| 2026-05-08 16:20 | 27.22760 | -20.72403 | 36067 ft | 440 kts | 222° |
| 2026-05-08 16:20 | 27.17558 | -20.76023 | 36070 ft | 440 kts | 222° |
| 2026-05-08 16:21 | 27.12353 | -20.79642 | 36068 ft | 440 kts | 222° |
| 2026-05-08 16:21 | 27.07150 | -20.83254 | 36057 ft | 440 kts | 222° |
| 2026-05-08 16:22 | 27.01947 | -20.86861 | 36067 ft | 439 kts | 221° |
| 2026-05-08 16:22 | 26.96748 | -20.90464 | 36069 ft | 440 kts | 221° |
| 2026-05-08 16:23 | 26.91575 | -20.94045 | 36073 ft | 440 kts | 221° |
| 2026-05-08 16:23 | 26.86355 | -20.97654 | 36071 ft | 441 kts | 221° |
| 2026-05-08 16:24 | 26.81186 | -21.01223 | 36071 ft | 442 kts | 221° |
| 2026-05-08 16:24 | 26.75953 | -21.04832 | 36071 ft | 442 kts | 221° |
| 2026-05-08 16:25 | 26.70714 | -21.08442 | 36062 ft | 442 kts | 221° |
| 2026-05-08 16:25 | 26.65474 | -21.12049 | 36063 ft | 443 kts | 221° |
| 2026-05-08 16:26 | 26.60220 | -21.15661 | 36069 ft | 443 kts | 221° |
| 2026-05-08 16:26 | 26.54961 | -21.19273 | 36079 ft | 444 kts | 221° |
| 2026-05-08 16:27 | 26.49691 | -21.22889 | 36076 ft | 445 kts | 221° |
| 2026-05-08 16:27 | 26.44409 | -21.26508 | 36075 ft | 446 kts | 221° |
| 2026-05-08 16:28 | 26.39122 | -21.30127 | 36077 ft | 446 kts | 221° |
| 2026-05-08 16:28 | 26.33837 | -21.33741 | 36077 ft | 447 kts | 221° |
| 2026-05-08 16:29 | 26.28535 | -21.37362 | 36074 ft | 447 kts | 221° |
| 2026-05-08 16:29 | 26.23227 | -21.40984 | 36080 ft | 448 kts | 220° |
| 2026-05-08 16:30 | 26.17923 | -21.44598 | 36082 ft | 448 kts | 220° |
| 2026-05-08 16:30 | 26.12619 | -21.48209 | 36062 ft | 448 kts | 220° |
| 2026-05-08 16:31 | 26.07302 | -21.51825 | 36074 ft | 448 kts | 220° |
| 2026-05-08 16:31 | 26.02021 | -21.55413 | 36080 ft | 448 kts | 220° |
| 2026-05-08 16:32 | 25.96710 | -21.59017 | 36078 ft | 448 kts | 220° |
| 2026-05-08 16:32 | 25.91390 | -21.62623 | 36079 ft | 448 kts | 220° |
| 2026-05-08 16:33 | 25.86071 | -21.66225 | 36079 ft | 448 kts | 220° |
| 2026-05-08 16:33 | 25.80748 | -21.69826 | 36079 ft | 448 kts | 220° |
| 2026-05-08 16:34 | 25.75433 | -21.73418 | 36068 ft | 447 kts | 220° |
| 2026-05-08 16:34 | 25.70114 | -21.77008 | 36074 ft | 448 kts | 220° |
| 2026-05-08 16:35 | 25.64794 | -21.80596 | 36084 ft | 448 kts | 220° |
| 2026-05-08 16:35 | 25.59470 | -21.84182 | 36076 ft | 448 kts | 220° |
| 2026-05-08 16:36 | 25.54136 | -21.87771 | 36082 ft | 448 kts | 220° |
| 2026-05-08 16:36 | 25.48804 | -21.91355 | 36083 ft | 448 kts | 220° |
| 2026-05-08 16:37 | 25.43475 | -21.94933 | 36086 ft | 448 kts | 219° |
| 2026-05-08 16:37 | 25.38148 | -21.98507 | 36083 ft | 448 kts | 219° |
| 2026-05-08 16:38 | 25.32876 | -22.02039 | 36085 ft | 448 kts | 219° |
| 2026-05-08 16:38 | 25.27537 | -22.05614 | 36085 ft | 449 kts | 219° |
| 2026-05-08 16:39 | 25.22195 | -22.09185 | 36088 ft | 449 kts | 219° |
| 2026-05-08 16:39 | 25.16888 | -22.12730 | 36087 ft | 449 kts | 219° |
| 2026-05-08 16:40 | 25.11544 | -22.16297 | 36073 ft | 448 kts | 219° |
| 2026-05-08 16:40 | 25.06203 | -22.19857 | 36081 ft | 449 kts | 219° |
| 2026-05-08 16:41 | 25.00856 | -22.23418 | 36092 ft | 449 kts | 219° |
| 2026-05-08 16:42 | 24.92828 | -22.28758 | 36092 ft | 450 kts | 219° |
| 2026-05-08 16:42 | 24.87464 | -22.32321 | 36094 ft | 450 kts | 219° |
| 2026-05-08 16:43 | 24.82097 | -22.35882 | 36089 ft | 450 kts | 219° |
| 2026-05-08 16:43 | 24.76731 | -22.39439 | 36081 ft | 450 kts | 218° |
| 2026-05-08 16:44 | 24.71363 | -22.42995 | 36090 ft | 450 kts | 218° |
| 2026-05-08 16:44 | 24.65987 | -22.46553 | 36077 ft | 451 kts | 218° |
| 2026-05-08 16:45 | 24.60615 | -22.50102 | 36088 ft | 451 kts | 218° |
| 2026-05-08 16:45 | 24.55218 | -22.53665 | 36345 ft | 452 kts | 218° |
| 2026-05-08 16:45 | 24.52525 | -22.55439 | 36610 ft | 450 kts | 218° |
| 2026-05-08 16:46 | 24.49846 | -22.57204 | 36878 ft | 448 kts | 218° |
| 2026-05-08 16:46 | 24.44525 | -22.60712 | 37036 ft | 451 kts | 218° |
| 2026-05-08 16:47 | 24.39141 | -22.64259 | 37082 ft | 451 kts | 218° |
| 2026-05-08 16:47 | 24.33779 | -22.67783 | 37089 ft | 448 kts | 218° |
| 2026-05-08 16:48 | 24.28450 | -22.71283 | 37090 ft | 445 kts | 218° |
| 2026-05-08 16:48 | 24.23143 | -22.74768 | 37089 ft | 444 kts | 218° |
| 2026-05-08 16:49 | 24.17838 | -22.78248 | 37090 ft | 444 kts | 218° |
| 2026-05-08 16:49 | 24.12534 | -22.81724 | 37097 ft | 445 kts | 218° |
| 2026-05-08 16:50 | 24.07211 | -22.85210 | 37095 ft | 447 kts | 218° |
| 2026-05-08 16:50 | 24.02730 | -22.88141 | 37093 ft | 449 kts | 218° |
| 2026-05-08 16:51 | 23.97368 | -22.91644 | 37093 ft | 451 kts | 218° |
| 2026-05-08 16:51 | 23.91978 | -22.95162 | 37092 ft | 452 kts | 218° |
| 2026-05-08 16:52 | 23.86570 | -22.98687 | 37094 ft | 453 kts | 218° |
| 2026-05-08 16:52 | 23.81224 | -23.02170 | 37084 ft | 453 kts | 217° |
| 2026-05-08 16:53 | 23.73142 | -23.07427 | 37090 ft | 453 kts | 217° |
| 2026-05-08 16:53 | 23.67731 | -23.10943 | 37078 ft | 452 kts | 217° |
| 2026-05-08 16:54 | 23.62326 | -23.14452 | 37087 ft | 452 kts | 217° |
| 2026-05-08 16:54 | 23.56922 | -23.17957 | 37091 ft | 452 kts | 217° |
| 2026-05-08 16:55 | 23.51518 | -23.21458 | 37090 ft | 452 kts | 217° |
| 2026-05-08 16:55 | 23.46114 | -23.24957 | 37095 ft | 452 kts | 217° |
| 2026-05-08 16:56 | 23.40698 | -23.28460 | 37095 ft | 453 kts | 217° |
| 2026-05-08 16:56 | 23.35267 | -23.31969 | 37085 ft | 454 kts | 217° |
| 2026-05-08 16:57 | 23.29825 | -23.35482 | 37081 ft | 455 kts | 217° |
| 2026-05-08 16:57 | 23.24378 | -23.38994 | 37084 ft | 455 kts | 217° |
| 2026-05-08 16:58 | 23.18933 | -23.42501 | 37102 ft | 455 kts | 217° |
| 2026-05-08 16:58 | 23.13523 | -23.45984 | 37083 ft | 455 kts | 216° |
| 2026-05-08 16:59 | 23.08079 | -23.49484 | 37087 ft | 455 kts | 216° |
| 2026-05-08 16:59 | 23.02591 | -23.53011 | 37089 ft | 455 kts | 216° |
| 2026-05-08 17:00 | 22.97180 | -23.56484 | 37091 ft | 456 kts | 216° |
| 2026-05-08 17:00 | 22.91718 | -23.59987 | 37091 ft | 456 kts | 216° |
| 2026-05-08 17:01 | 22.86252 | -23.63487 | 37088 ft | 456 kts | 216° |
| 2026-05-08 17:01 | 22.80786 | -23.66984 | 37091 ft | 456 kts | 216° |
| 2026-05-08 17:02 | 22.75315 | -23.70482 | 37093 ft | 456 kts | 216° |
| 2026-05-08 17:02 | 22.69844 | -23.73977 | 37084 ft | 456 kts | 216° |
| 2026-05-08 17:03 | 22.64378 | -23.77467 | 37086 ft | 456 kts | 216° |
| 2026-05-08 17:03 | 22.58912 | -23.80953 | 37088 ft | 456 kts | 216° |
| 2026-05-08 17:04 | 22.53445 | -23.84436 | 37087 ft | 456 kts | 216° |
| 2026-05-08 17:04 | 22.47977 | -23.87918 | 37080 ft | 456 kts | 216° |
| 2026-05-08 17:05 | 22.42506 | -23.91397 | 37093 ft | 456 kts | 216° |
| 2026-05-08 17:05 | 22.37030 | -23.94876 | 37089 ft | 457 kts | 216° |
| 2026-05-08 17:06 | 22.31543 | -23.98360 | 37092 ft | 458 kts | 216° |
| 2026-05-08 17:06 | 22.26119 | -24.01800 | 37090 ft | 458 kts | 216° |
| 2026-05-08 17:07 | 22.20624 | -24.05282 | 37087 ft | 458 kts | 216° |
| 2026-05-08 17:07 | 22.15121 | -24.08765 | 37078 ft | 458 kts | 216° |
| 2026-05-08 17:08 | 22.09620 | -24.12245 | 37083 ft | 459 kts | 216° |
| 2026-05-08 17:08 | 22.04108 | -24.15728 | 37090 ft | 459 kts | 216° |
| 2026-05-08 17:09 | 21.98597 | -24.19207 | 37088 ft | 460 kts | 216° |
| 2026-05-08 17:09 | 21.93073 | -24.22691 | 37086 ft | 460 kts | 216° |
| 2026-05-08 17:10 | 21.87577 | -24.26155 | 37087 ft | 460 kts | 216° |
| 2026-05-08 17:10 | 21.82042 | -24.29640 | 37077 ft | 460 kts | 215° |
| 2026-05-08 17:11 | 21.76507 | -24.33122 | 37085 ft | 461 kts | 215° |
| 2026-05-08 17:11 | 21.70954 | -24.36612 | 37085 ft | 462 kts | 215° |
| 2026-05-08 17:12 | 21.65426 | -24.40083 | 37089 ft | 462 kts | 215° |
| 2026-05-08 17:12 | 21.59857 | -24.43576 | 37084 ft | 462 kts | 215° |
| 2026-05-08 17:13 | 21.54328 | -24.47042 | 37080 ft | 463 kts | 215° |
| 2026-05-08 17:13 | 21.48762 | -24.50528 | 37086 ft | 463 kts | 215° |
| 2026-05-08 17:14 | 21.43188 | -24.54015 | 37086 ft | 463 kts | 215° |
| 2026-05-08 17:14 | 21.37610 | -24.57502 | 37085 ft | 464 kts | 215° |
| 2026-05-08 17:15 | 21.32067 | -24.60963 | 37082 ft | 464 kts | 215° |
| 2026-05-08 17:15 | 21.26479 | -24.64451 | 37085 ft | 464 kts | 215° |
| 2026-05-08 17:16 | 21.20881 | -24.67940 | 37085 ft | 464 kts | 214° |
| 2026-05-08 17:16 | 21.15326 | -24.71401 | 37071 ft | 464 kts | 214° |
| 2026-05-08 17:17 | 21.09725 | -24.74887 | 37081 ft | 464 kts | 214° |
| 2026-05-08 17:17 | 21.04122 | -24.78371 | 37082 ft | 465 kts | 214° |
| 2026-05-08 17:18 | 20.98534 | -24.81842 | 37083 ft | 465 kts | 214° |
| 2026-05-08 17:18 | 20.92933 | -24.85318 | 37081 ft | 466 kts | 214° |
| 2026-05-08 17:19 | 20.87359 | -24.88775 | 37079 ft | 466 kts | 214° |
| 2026-05-08 17:19 | 20.81742 | -24.92256 | 37070 ft | 466 kts | 214° |
| 2026-05-08 17:20 | 20.76117 | -24.95738 | 37085 ft | 466 kts | 214° |
| 2026-05-08 17:20 | 20.70497 | -24.99215 | 37083 ft | 467 kts | 214° |
| 2026-05-08 17:21 | 20.64971 | -25.02630 | 37079 ft | 467 kts | 214° |
| 2026-05-08 17:21 | 20.59335 | -25.06110 | 37076 ft | 468 kts | 214° |
| 2026-05-08 17:22 | 20.53693 | -25.09590 | 37079 ft | 468 kts | 214° |
| 2026-05-08 17:22 | 20.48045 | -25.13073 | 37069 ft | 468 kts | 214° |
| 2026-05-08 17:23 | 20.42402 | -25.16548 | 37077 ft | 468 kts | 214° |
| 2026-05-08 17:23 | 20.36787 | -25.20003 | 37070 ft | 469 kts | 214° |
| 2026-05-08 17:24 | 20.31129 | -25.23482 | 37073 ft | 469 kts | 214° |
| 2026-05-08 17:24 | 20.25468 | -25.26960 | 37075 ft | 469 kts | 214° |
| 2026-05-08 17:25 | 20.19803 | -25.30437 | 37072 ft | 469 kts | 214° |
| 2026-05-08 17:25 | 20.14175 | -25.33889 | 37073 ft | 469 kts | 213° |
| 2026-05-08 17:26 | 20.08500 | -25.37366 | 37074 ft | 470 kts | 213° |
| 2026-05-08 17:26 | 20.02826 | -25.40840 | 37074 ft | 470 kts | 213° |
| 2026-05-08 17:27 | 19.97196 | -25.44284 | 37071 ft | 470 kts | 213° |
| 2026-05-08 17:27 | 19.91516 | -25.47756 | 37071 ft | 470 kts | 213° |
| 2026-05-08 17:28 | 19.85834 | -25.51226 | 37071 ft | 471 kts | 213° |
| 2026-05-08 17:28 | 19.80144 | -25.54698 | 37066 ft | 471 kts | 213° |
| 2026-05-08 17:29 | 19.74490 | -25.58145 | 37071 ft | 471 kts | 213° |
| 2026-05-08 17:29 | 19.68797 | -25.61614 | 37068 ft | 471 kts | 213° |
| 2026-05-08 17:30 | 19.63131 | -25.65062 | 37069 ft | 471 kts | 213° |
| 2026-05-08 17:30 | 19.57435 | -25.68527 | 37071 ft | 472 kts | 213° |
| 2026-05-08 17:31 | 19.51733 | -25.71992 | 37070 ft | 472 kts | 213° |
| 2026-05-08 17:31 | 19.46034 | -25.75452 | 37071 ft | 472 kts | 213° |
| 2026-05-08 17:32 | 19.40331 | -25.78912 | 37065 ft | 472 kts | 213° |
| 2026-05-08 17:32 | 19.34661 | -25.82350 | 37065 ft | 472 kts | 213° |
| 2026-05-08 17:33 | 19.28956 | -25.85805 | 37065 ft | 472 kts | 213° |
| 2026-05-08 17:33 | 19.23250 | -25.89259 | 37065 ft | 472 kts | 213° |
| 2026-05-08 17:34 | 19.17544 | -25.92710 | 37065 ft | 471 kts | 213° |
| 2026-05-08 17:34 | 19.11877 | -25.96135 | 37054 ft | 471 kts | 213° |
| 2026-05-08 17:35 | 19.06175 | -25.99578 | 37064 ft | 471 kts | 213° |
| 2026-05-08 17:35 | 19.00534 | -26.02982 | 37060 ft | 472 kts | 213° |
| 2026-05-08 17:36 | 18.94877 | -26.06393 | 37064 ft | 472 kts | 213° |
| 2026-05-08 17:36 | 18.89162 | -26.09815 | 37058 ft | 472 kts | 213° |
| 2026-05-08 17:37 | 18.83440 | -26.13228 | 37051 ft | 472 kts | 213° |
| 2026-05-08 17:37 | 18.77710 | -26.16646 | 37055 ft | 473 kts | 213° |
| 2026-05-08 17:38 | 18.72939 | -26.19492 | 37058 ft | 473 kts | 213° |
| 2026-05-08 17:38 | 18.67197 | -26.22916 | 37057 ft | 473 kts | 213° |
| 2026-05-08 17:39 | 18.61465 | -26.26331 | 37051 ft | 473 kts | 213° |
| 2026-05-08 17:39 | 18.55757 | -26.29729 | 37055 ft | 473 kts | 213° |
| 2026-05-08 17:40 | 18.50004 | -26.33152 | 37050 ft | 474 kts | 213° |
| 2026-05-08 17:40 | 18.44294 | -26.36546 | 37052 ft | 474 kts | 212° |
| 2026-05-08 17:41 | 18.38544 | -26.39960 | 37059 ft | 474 kts | 212° |
| 2026-05-08 17:41 | 18.32797 | -26.43371 | 37053 ft | 474 kts | 212° |
| 2026-05-08 17:42 | 18.27049 | -26.46780 | 37051 ft | 474 kts | 212° |
| 2026-05-08 17:42 | 18.21300 | -26.50187 | 37047 ft | 474 kts | 212° |
| 2026-05-08 17:43 | 18.15584 | -26.53572 | 37035 ft | 474 kts | 212° |
| 2026-05-08 17:43 | 18.09827 | -26.56978 | 37052 ft | 474 kts | 212° |
| 2026-05-08 17:44 | 18.04064 | -26.60384 | 37046 ft | 475 kts | 212° |
| 2026-05-08 17:44 | 17.98306 | -26.63786 | 37048 ft | 475 kts | 212° |
| 2026-05-08 17:45 | 17.92588 | -26.67162 | 37044 ft | 475 kts | 212° |
| 2026-05-08 17:45 | 17.86826 | -26.70560 | 37047 ft | 474 kts | 212° |
| 2026-05-08 17:46 | 17.81063 | -26.73958 | 37034 ft | 474 kts | 212° |
| 2026-05-08 17:46 | 17.75304 | -26.77350 | 37044 ft | 475 kts | 212° |
| 2026-05-08 17:47 | 17.69542 | -26.80741 | 37044 ft | 475 kts | 212° |
| 2026-05-08 17:47 | 17.64743 | -26.83564 | 37041 ft | 475 kts | 212° |
| 2026-05-08 17:48 | 17.58031 | -26.87509 | 37040 ft | 476 kts | 212° |
| 2026-05-08 17:48 | 17.52252 | -26.90902 | 37041 ft | 476 kts | 212° |
| 2026-05-08 17:49 | 17.46473 | -26.94294 | 37033 ft | 476 kts | 212° |
| 2026-05-08 17:49 | 17.40696 | -26.97681 | 37039 ft | 476 kts | 212° |
| 2026-05-08 17:50 | 17.35017 | -27.01009 | 37035 ft | 476 kts | 212° |
| 2026-05-08 17:50 | 17.29233 | -27.04395 | 37036 ft | 476 kts | 212° |
| 2026-05-08 17:51 | 17.23456 | -27.07775 | 37035 ft | 476 kts | 212° |
| 2026-05-08 17:51 | 17.17668 | -27.11160 | 37036 ft | 476 kts | 212° |
| 2026-05-08 17:52 | 17.11891 | -27.14535 | 37025 ft | 476 kts | 212° |
| 2026-05-08 17:53 | 17.03244 | -27.19583 | 37036 ft | 476 kts | 212° |
| 2026-05-08 17:53 | 16.97462 | -27.22955 | 37031 ft | 476 kts | 212° |
| 2026-05-08 17:54 | 16.91673 | -27.26329 | 37033 ft | 476 kts | 212° |
| 2026-05-08 17:54 | 16.85922 | -27.29678 | 37029 ft | 476 kts | 212° |
| 2026-05-08 17:55 | 16.80132 | -27.33048 | 37021 ft | 476 kts | 211° |
| 2026-05-08 17:55 | 16.74345 | -27.36414 | 37030 ft | 476 kts | 211° |
| 2026-05-08 17:56 | 16.68556 | -27.39778 | 37027 ft | 476 kts | 211° |
| 2026-05-08 17:56 | 16.62773 | -27.43137 | 37026 ft | 476 kts | 211° |
| 2026-05-08 17:57 | 16.57014 | -27.46479 | 37024 ft | 476 kts | 211° |
| 2026-05-08 17:57 | 16.51216 | -27.49842 | 37028 ft | 476 kts | 211° |
| 2026-05-08 17:58 | 16.45418 | -27.53202 | 37017 ft | 476 kts | 211° |
| 2026-05-08 17:58 | 16.39624 | -27.56558 | 37022 ft | 476 kts | 211° |
| 2026-05-08 17:59 | 16.33830 | -27.59911 | 37024 ft | 476 kts | 211° |
| 2026-05-08 17:59 | 16.28071 | -27.63242 | 37025 ft | 476 kts | 211° |
| 2026-05-08 18:00 | 16.22271 | -27.66595 | 37024 ft | 476 kts | 211° |
| 2026-05-08 18:00 | 16.13571 | -27.71619 | 37021 ft | 476 kts | 211° |
| 2026-05-08 18:01 | 16.07761 | -27.74971 | 37018 ft | 476 kts | 211° |
| 2026-05-08 18:01 | 16.01991 | -27.78298 | 37025 ft | 476 kts | 211° |
| 2026-05-08 18:02 | 15.97170 | -27.81076 | 37016 ft | 476 kts | 211° |
| 2026-05-08 18:02 | 15.90386 | -27.84983 | 37017 ft | 476 kts | 211° |
| 2026-05-08 18:03 | 15.84588 | -27.88319 | 37027 ft | 476 kts | 211° |
| 2026-05-08 18:03 | 15.78831 | -27.91630 | 37010 ft | 476 kts | 211° |
| 2026-05-08 18:04 | 15.73036 | -27.94960 | 37031 ft | 476 kts | 211° |
| 2026-05-08 18:04 | 15.67243 | -27.98288 | 37018 ft | 476 kts | 211° |
| 2026-05-08 18:05 | 15.61520 | -28.01572 | 37021 ft | 476 kts | 211° |
| 2026-05-08 18:05 | 15.55719 | -28.04900 | 37007 ft | 476 kts | 211° |
| 2026-05-08 18:06 | 15.49920 | -28.08224 | 37012 ft | 476 kts | 211° |
| 2026-05-08 18:06 | 15.44147 | -28.11531 | 37013 ft | 476 kts | 211° |
| 2026-05-08 18:07 | 15.38341 | -28.14855 | 37010 ft | 476 kts | 211° |
| 2026-05-08 18:07 | 15.32532 | -28.18178 | 37010 ft | 477 kts | 211° |
| 2026-05-08 18:08 | 15.26718 | -28.21502 | 37009 ft | 477 kts | 211° |
| 2026-05-08 18:08 | 15.20903 | -28.24825 | 37010 ft | 477 kts | 211° |
| 2026-05-08 18:09 | 15.15122 | -28.28126 | 37009 ft | 477 kts | 211° |
| 2026-05-08 18:09 | 15.09302 | -28.31447 | 37002 ft | 477 kts | 211° |
| 2026-05-08 18:10 | 15.03487 | -28.34764 | 37005 ft | 477 kts | 211° |
| 2026-05-08 18:10 | 14.97663 | -28.38083 | 37006 ft | 477 kts | 211° |
| 2026-05-08 18:11 | 14.91874 | -28.41382 | 37008 ft | 477 kts | 211° |
| 2026-05-08 18:11 | 14.86050 | -28.44698 | 37001 ft | 477 kts | 211° |
| 2026-05-08 18:12 | 14.80221 | -28.48014 | 37004 ft | 478 kts | 211° |
| 2026-05-08 18:12 | 14.74401 | -28.51352 | 36993 ft | 478 kts | 211° |
| 2026-05-08 18:13 | 14.68626 | -28.54682 | 36995 ft | 478 kts | 211° |
| 2026-05-08 18:13 | 14.62812 | -28.58032 | 36995 ft | 478 kts | 211° |
| 2026-05-08 18:14 | 14.56994 | -28.61379 | 36998 ft | 478 kts | 211° |
| 2026-05-08 18:14 | 14.51178 | -28.64721 | 36997 ft | 478 kts | 211° |
| 2026-05-08 18:15 | 14.45362 | -28.68060 | 36996 ft | 478 kts | 211° |
| 2026-05-08 18:15 | 14.39576 | -28.71380 | 36990 ft | 478 kts | 211° |
| 2026-05-08 18:16 | 14.33755 | -28.74719 | 36997 ft | 478 kts | 211° |
| 2026-05-08 18:16 | 14.27975 | -28.78032 | 36997 ft | 478 kts | 211° |
| 2026-05-08 18:17 | 14.22155 | -28.81366 | 36992 ft | 478 kts | 211° |
| 2026-05-08 18:17 | 14.16342 | -28.84695 | 36993 ft | 478 kts | 211° |
| 2026-05-08 18:18 | 14.10526 | -28.88022 | 36992 ft | 478 kts | 211° |
| 2026-05-08 18:18 | 14.04707 | -28.91350 | 36986 ft | 478 kts | 211° |
| 2026-05-08 18:19 | 13.98897 | -28.94671 | 36991 ft | 477 kts | 211° |
| 2026-05-08 18:19 | 13.93123 | -28.97968 | 36991 ft | 477 kts | 211° |
| 2026-05-08 18:20 | 13.87383 | -29.01245 | 36990 ft | 477 kts | 211° |
| 2026-05-08 18:20 | 13.81571 | -29.04561 | 36983 ft | 477 kts | 211° |
| 2026-05-08 18:21 | 13.75767 | -29.07870 | 36988 ft | 476 kts | 211° |
| 2026-05-08 18:21 | 13.69965 | -29.11177 | 36981 ft | 476 kts | 211° |
| 2026-05-08 18:22 | 13.64200 | -29.14460 | 36986 ft | 476 kts | 211° |
| 2026-05-08 18:22 | 13.58404 | -29.17760 | 36986 ft | 476 kts | 211° |
| 2026-05-08 18:23 | 13.52602 | -29.21060 | 36982 ft | 476 kts | 211° |
| 2026-05-08 18:23 | 13.46797 | -29.24361 | 36980 ft | 476 kts | 211° |
| 2026-05-08 18:24 | 13.41032 | -29.27637 | 36982 ft | 476 kts | 211° |
| 2026-05-08 18:24 | 13.35240 | -29.30927 | 36981 ft | 475 kts | 211° |
| 2026-05-08 18:25 | 13.30420 | -29.33663 | 36981 ft | 475 kts | 211° |
| 2026-05-08 18:25 | 13.24622 | -29.36953 | 36980 ft | 475 kts | 211° |
| 2026-05-08 18:26 | 13.18824 | -29.40241 | 36979 ft | 475 kts | 211° |
| 2026-05-08 18:26 | 13.13065 | -29.43505 | 36978 ft | 475 kts | 211° |
| 2026-05-08 18:27 | 13.08210 | -29.46255 | 36978 ft | 475 kts | 211° |
| 2026-05-08 18:27 | 13.01481 | -29.50064 | 36977 ft | 475 kts | 211° |
| 2026-05-08 18:28 | 12.95693 | -29.53340 | 36978 ft | 474 kts | 211° |
| 2026-05-08 18:28 | 12.89954 | -29.56585 | 36979 ft | 474 kts | 212° |
| 2026-05-08 18:29 | 12.84172 | -29.59853 | 36979 ft | 473 kts | 212° |
| 2026-05-08 18:29 | 12.78397 | -29.63116 | 36978 ft | 473 kts | 212° |
| 2026-05-08 18:30 | 12.72631 | -29.66372 | 36978 ft | 473 kts | 212° |
| 2026-05-08 18:30 | 12.66908 | -29.69602 | 36981 ft | 472 kts | 212° |
| 2026-05-08 18:31 | 12.61140 | -29.72855 | 36974 ft | 472 kts | 212° |
| 2026-05-08 18:31 | 12.55379 | -29.76103 | 36976 ft | 472 kts | 212° |
| 2026-05-08 18:32 | 12.49621 | -29.79348 | 36976 ft | 472 kts | 212° |
| 2026-05-08 18:32 | 12.43888 | -29.82576 | 36976 ft | 473 kts | 212° |
| 2026-05-08 18:33 | 12.38118 | -29.85824 | 36964 ft | 472 kts | 212° |
| 2026-05-08 18:33 | 12.32359 | -29.89064 | 36972 ft | 472 kts | 212° |
| 2026-05-08 18:34 | 12.26637 | -29.92282 | 36971 ft | 471 kts | 212° |
| 2026-05-08 18:34 | 12.20881 | -29.95517 | 36969 ft | 471 kts | 212° |
| 2026-05-08 18:35 | 12.15170 | -29.98725 | 36970 ft | 471 kts | 212° |
| 2026-05-08 18:35 | 12.09487 | -30.01916 | 36973 ft | 471 kts | 212° |
| 2026-05-08 18:36 | 12.03737 | -30.05144 | 36967 ft | 470 kts | 212° |
| 2026-05-08 18:36 | 11.98006 | -30.08358 | 36970 ft | 470 kts | 212° |
| 2026-05-08 18:37 | 11.92299 | -30.11558 | 36970 ft | 470 kts | 212° |
| 2026-05-08 18:37 | 11.86566 | -30.14771 | 36970 ft | 469 kts | 212° |
| 2026-05-08 18:38 | 11.80838 | -30.17980 | 36970 ft | 469 kts | 212° |
| 2026-05-08 18:38 | 11.75115 | -30.21184 | 36974 ft | 469 kts | 212° |
| 2026-05-08 18:39 | 11.69432 | -30.24364 | 36961 ft | 468 kts | 212° |
| 2026-05-08 18:39 | 11.63719 | -30.27559 | 36963 ft | 468 kts | 212° |
| 2026-05-08 18:40 | 11.58001 | -30.30756 | 36969 ft | 468 kts | 212° |
| 2026-05-08 18:40 | 11.52292 | -30.33946 | 36966 ft | 467 kts | 212° |
| 2026-05-08 18:41 | 11.46584 | -30.37134 | 36965 ft | 467 kts | 212° |
| 2026-05-08 18:41 | 11.40878 | -30.40321 | 36965 ft | 468 kts | 212° |
| 2026-05-08 18:42 | 11.35206 | -30.43486 | 36963 ft | 467 kts | 212° |
| 2026-05-08 18:42 | 11.29495 | -30.46671 | 36960 ft | 467 kts | 212° |
| 2026-05-08 18:43 | 11.23788 | -30.49853 | 36956 ft | 467 kts | 212° |
| 2026-05-08 18:43 | 11.18075 | -30.53037 | 36979 ft | 467 kts | 212° |
| 2026-05-08 18:44 | 11.12368 | -30.56216 | 36966 ft | 467 kts | 212° |
| 2026-05-08 18:44 | 11.06699 | -30.59372 | 36961 ft | 467 kts | 212° |
| 2026-05-08 18:45 | 11.00984 | -30.62553 | 36970 ft | 467 kts | 212° |
| 2026-05-08 18:45 | 10.95280 | -30.65726 | 36969 ft | 467 kts | 212° |
| 2026-05-08 18:46 | 10.89781 | -30.68784 | 36968 ft | 468 kts | 212° |
| 2026-05-08 18:46 | 10.84079 | -30.71954 | 36952 ft | 467 kts | 212° |
| 2026-05-08 18:47 | 10.78384 | -30.75118 | 36952 ft | 466 kts | 212° |
| 2026-05-08 18:47 | 10.72715 | -30.78272 | 36948 ft | 465 kts | 212° |
| 2026-05-08 18:48 | 10.67212 | -30.81338 | 36961 ft | 465 kts | 212° |
| 2026-05-08 18:48 | 10.61477 | -30.84531 | 36965 ft | 468 kts | 212° |
| 2026-05-08 18:49 | 10.55795 | -30.87688 | 36966 ft | 470 kts | 212° |
| 2026-05-08 18:49 | 10.50045 | -30.90863 | 36966 ft | 471 kts | 211° |
| 2026-05-08 18:50 | 10.44474 | -30.93936 | 36942 ft | 470 kts | 211° |
| 2026-05-08 18:50 | 10.38751 | -30.97093 | 36960 ft | 466 kts | 212° |
| 2026-05-08 18:51 | 10.33129 | -31.00195 | 36954 ft | 464 kts | 211° |
| 2026-05-08 18:51 | 10.27472 | -31.03317 | 36946 ft | 462 kts | 211° |
| 2026-05-08 18:52 | 10.21829 | -31.06430 | 36956 ft | 462 kts | 211° |
| 2026-05-08 18:52 | 10.16163 | -31.09553 | 36953 ft | 464 kts | 211° |
| 2026-05-08 18:53 | 10.10482 | -31.12684 | 36951 ft | 466 kts | 211° |
| 2026-05-08 18:53 | 10.04775 | -31.15815 | 36948 ft | 467 kts | 211° |
| 2026-05-08 18:54 | 9.99050 | -31.18960 | 36947 ft | 469 kts | 211° |
| 2026-05-08 18:54 | 9.93348 | -31.22100 | 36957 ft | 470 kts | 211° |
| 2026-05-08 18:55 | 9.84717 | -31.26852 | 36953 ft | 471 kts | 211° |
| 2026-05-08 18:56 | 9.78956 | -31.30022 | 36951 ft | 471 kts | 211° |
| 2026-05-08 18:56 | 9.73197 | -31.33191 | 36949 ft | 471 kts | 211° |
| 2026-05-08 18:57 | 9.67437 | -31.36344 | 36944 ft | 470 kts | 210° |
| 2026-05-08 18:57 | 9.61667 | -31.39471 | 36948 ft | 470 kts | 210° |
| 2026-05-08 18:58 | 9.55896 | -31.42566 | 36946 ft | 469 kts | 210° |
| 2026-05-08 18:58 | 9.50111 | -31.45635 | 36949 ft | 469 kts | 210° |
| 2026-05-08 18:59 | 9.44319 | -31.48675 | 36948 ft | 469 kts | 209° |
| 2026-05-08 18:59 | 9.38516 | -31.51689 | 36949 ft | 469 kts | 209° |
| 2026-05-08 19:00 | 9.33684 | -31.54174 | 36949 ft | 469 kts | 209° |
| 2026-05-08 19:00 | 9.26874 | -31.57638 | 36948 ft | 469 kts | 208° |
| 2026-05-08 19:01 | 9.21032 | -31.60575 | 36947 ft | 469 kts | 208° |
| 2026-05-08 19:01 | 9.15180 | -31.63484 | 36944 ft | 469 kts | 208° |
| 2026-05-08 19:02 | 9.09349 | -31.66352 | 36944 ft | 469 kts | 208° |
| 2026-05-08 19:02 | 9.03466 | -31.69214 | 36942 ft | 469 kts | 207° |
| 2026-05-08 19:03 | 8.97566 | -31.72053 | 36945 ft | 470 kts | 207° |
| 2026-05-08 19:03 | 8.91652 | -31.74867 | 36944 ft | 470 kts | 207° |
| 2026-05-08 19:04 | 8.85710 | -31.77663 | 36941 ft | 471 kts | 206° |
| 2026-05-08 19:04 | 8.79755 | -31.80434 | 36943 ft | 471 kts | 206° |
| 2026-05-08 19:05 | 8.73780 | -31.83183 | 36939 ft | 472 kts | 206° |
| 2026-05-08 19:05 | 8.67789 | -31.85908 | 36934 ft | 472 kts | 206° |
| 2026-05-08 19:06 | 8.61789 | -31.88607 | 36943 ft | 472 kts | 205° |
| 2026-05-08 19:06 | 8.55774 | -31.91280 | 36940 ft | 472 kts | 205° |
| 2026-05-08 19:07 | 8.49748 | -31.93928 | 36938 ft | 472 kts | 205° |
| 2026-05-08 19:07 | 8.43714 | -31.96548 | 36939 ft | 472 kts | 205° |
| 2026-05-08 19:08 | 8.37664 | -31.99144 | 36941 ft | 472 kts | 204° |
| 2026-05-08 19:08 | 8.31681 | -32.01681 | 36938 ft | 472 kts | 204° |
| 2026-05-08 19:09 | 8.25649 | -32.04207 | 36940 ft | 472 kts | 204° |
| 2026-05-08 19:09 | 8.19571 | -32.06723 | 36939 ft | 472 kts | 203° |
| 2026-05-08 19:10 | 8.13480 | -32.09213 | 36940 ft | 472 kts | 203° |
| 2026-05-08 19:10 | 8.07373 | -32.11678 | 36942 ft | 473 kts | 203° |
| 2026-05-08 19:11 | 8.01260 | -32.14115 | 36939 ft | 473 kts | 202° |
| 2026-05-08 19:11 | 7.95132 | -32.16527 | 36939 ft | 473 kts | 202° |
| 2026-05-08 19:12 | 7.88995 | -32.18912 | 36935 ft | 473 kts | 202° |
| 2026-05-08 19:12 | 7.82849 | -32.21270 | 36938 ft | 473 kts | 202° |
| 2026-05-08 19:13 | 7.76691 | -32.23601 | 36941 ft | 473 kts | 201° |
| 2026-05-08 19:13 | 7.70521 | -32.25906 | 36933 ft | 473 kts | 201° |
| 2026-05-08 19:14 | 7.64345 | -32.28183 | 36941 ft | 473 kts | 201° |
| 2026-05-08 19:14 | 7.58161 | -32.30432 | 36939 ft | 472 kts | 200° |
| 2026-05-08 19:15 | 7.51975 | -32.32652 | 36937 ft | 472 kts | 200° |
| 2026-05-08 19:15 | 7.46828 | -32.34475 | 36934 ft | 472 kts | 200° |
| 2026-05-08 19:16 | 7.40631 | -32.36643 | 36940 ft | 471 kts | 200° |
| 2026-05-08 19:16 | 7.34423 | -32.38783 | 36939 ft | 471 kts | 200° |
| 2026-05-08 19:17 | 7.28203 | -32.40898 | 36936 ft | 471 kts | 199° |
| 2026-05-08 19:17 | 7.21980 | -32.42983 | 36931 ft | 472 kts | 199° |
| 2026-05-08 19:18 | 7.15786 | -32.45029 | 36937 ft | 472 kts | 199° |
| 2026-05-08 19:18 | 7.09537 | -32.47063 | 36940 ft | 472 kts | 199° |
| 2026-05-08 19:19 | 7.03278 | -32.49071 | 36930 ft | 472 kts | 199° |
| 2026-05-08 19:19 | 6.97016 | -32.51048 | 36934 ft | 472 kts | 198° |
| 2026-05-08 19:20 | 6.90733 | -32.53003 | 36940 ft | 472 kts | 198° |
| 2026-05-08 19:20 | 6.84444 | -32.54929 | 36938 ft | 472 kts | 198° |
| 2026-05-08 19:21 | 6.78149 | -32.56827 | 36933 ft | 472 kts | 197° |
| 2026-05-08 19:21 | 6.71843 | -32.58698 | 36933 ft | 472 kts | 197° |
| 2026-05-08 19:22 | 6.65527 | -32.60543 | 36938 ft | 473 kts | 197° |
| 2026-05-08 19:22 | 6.59199 | -32.62360 | 36933 ft | 473 kts | 197° |
| 2026-05-08 19:23 | 6.52856 | -32.64152 | 36936 ft | 474 kts | 197° |
| 2026-05-08 19:23 | 6.46500 | -32.65917 | 36934 ft | 474 kts | 197° |
| 2026-05-08 19:24 | 6.40130 | -32.67657 | 36937 ft | 475 kts | 196° |
| 2026-05-08 19:24 | 6.33744 | -32.69371 | 36926 ft | 475 kts | 196° |
| 2026-05-08 19:25 | 6.27346 | -32.71059 | 36939 ft | 475 kts | 196° |
| 2026-05-08 19:25 | 6.20936 | -32.72721 | 36935 ft | 476 kts | 195° |
| 2026-05-08 19:26 | 6.14513 | -32.74357 | 36934 ft | 476 kts | 195° |
| 2026-05-08 19:26 | 6.08127 | -32.75955 | 36933 ft | 476 kts | 195° |
| 2026-05-08 19:27 | 6.01689 | -32.77536 | 36931 ft | 476 kts | 195° |
| 2026-05-08 19:27 | 5.95255 | -32.79087 | 36931 ft | 476 kts | 194° |
| 2026-05-08 19:28 | 5.88809 | -32.80611 | 36927 ft | 476 kts | 194° |
| 2026-05-08 19:28 | 5.82356 | -32.82107 | 36928 ft | 476 kts | 194° |
| 2026-05-08 19:29 | 5.75902 | -32.83574 | 36932 ft | 476 kts | 194° |
| 2026-05-08 19:29 | 5.69439 | -32.85014 | 36931 ft | 476 kts | 194° |
| 2026-05-08 19:30 | 5.62967 | -32.86427 | 36930 ft | 476 kts | 193° |
| 2026-05-08 19:30 | 5.56493 | -32.87812 | 36931 ft | 476 kts | 193° |
| 2026-05-08 19:31 | 5.50314 | -32.90038 | 36929 ft | 472 kts | 210° |
| 2026-05-08 19:31 | 5.44915 | -32.93755 | 36939 ft | 471 kts | 219° |
| 2026-05-08 19:32 | 5.39798 | -32.97884 | 36932 ft | 473 kts | 220° |
| 2026-05-08 19:32 | 5.34738 | -33.01966 | 36929 ft | 474 kts | 219° |
| 2026-05-08 19:33 | 5.29563 | -33.06077 | 36929 ft | 475 kts | 219° |
| 2026-05-08 19:33 | 5.24378 | -33.10178 | 36929 ft | 475 kts | 219° |
| 2026-05-08 19:34 | 5.19196 | -33.14288 | 36926 ft | 475 kts | 219° |
| 2026-05-08 19:34 | 5.14021 | -33.18400 | 36927 ft | 474 kts | 219° |
| 2026-05-08 19:35 | 5.08856 | -33.22504 | 36923 ft | 473 kts | 219° |
| 2026-05-08 19:35 | 5.03732 | -33.26575 | 36929 ft | 473 kts | 219° |
| 2026-05-08 19:36 | 4.98584 | -33.30664 | 36924 ft | 472 kts | 219° |
| 2026-05-08 19:36 | 4.93432 | -33.34755 | 36928 ft | 472 kts | 219° |
| 2026-05-08 19:37 | 4.88284 | -33.38842 | 36929 ft | 472 kts | 219° |
| 2026-05-08 19:37 | 4.83130 | -33.42933 | 36927 ft | 472 kts | 219° |
| 2026-05-08 19:38 | 4.77977 | -33.47022 | 36930 ft | 473 kts | 219° |
| 2026-05-08 19:38 | 4.72817 | -33.51117 | 36927 ft | 473 kts | 219° |
| 2026-05-08 19:39 | 4.67656 | -33.55210 | 36927 ft | 473 kts | 219° |
| 2026-05-08 19:39 | 4.62530 | -33.59276 | 36922 ft | 473 kts | 219° |
| 2026-05-08 19:40 | 4.57364 | -33.63373 | 36924 ft | 474 kts | 219° |
| 2026-05-08 19:40 | 4.52200 | -33.67467 | 36929 ft | 473 kts | 219° |
| 2026-05-08 19:41 | 4.47034 | -33.71561 | 36926 ft | 473 kts | 219° |
| 2026-05-08 19:41 | 4.41868 | -33.75656 | 36926 ft | 473 kts | 219° |
| 2026-05-08 19:42 | 4.36702 | -33.79749 | 36930 ft | 473 kts | 219° |
| 2026-05-08 19:42 | 4.31533 | -33.83844 | 36928 ft | 474 kts | 219° |
| 2026-05-08 19:43 | 4.26364 | -33.87938 | 36932 ft | 474 kts | 219° |
| 2026-05-08 19:43 | 4.21193 | -33.92033 | 36932 ft | 474 kts | 219° |
| 2026-05-08 19:44 | 4.16020 | -33.96129 | 36929 ft | 474 kts | 219° |
| 2026-05-08 19:44 | 4.10911 | -34.00175 | 36926 ft | 474 kts | 219° |
| 2026-05-08 19:45 | 4.05736 | -34.04271 | 36932 ft | 474 kts | 219° |
| 2026-05-08 19:45 | 4.00563 | -34.08365 | 36929 ft | 474 kts | 219° |
| 2026-05-08 19:46 | 3.95386 | -34.12462 | 36927 ft | 474 kts | 219° |
| 2026-05-08 19:46 | 3.87615 | -34.18609 | 36923 ft | 475 kts | 219° |
| 2026-05-08 19:47 | 3.82467 | -34.22681 | 36932 ft | 475 kts | 219° |
| 2026-05-08 19:47 | 3.77289 | -34.26776 | 36924 ft | 474 kts | 219° |
| 2026-05-08 19:48 | 3.72110 | -34.30871 | 36923 ft | 474 kts | 219° |
| 2026-05-08 19:48 | 3.66939 | -34.34960 | 36923 ft | 474 kts | 219° |
| 2026-05-08 19:49 | 3.61770 | -34.39046 | 36926 ft | 473 kts | 219° |
| 2026-05-08 19:49 | 3.56605 | -34.43128 | 36925 ft | 473 kts | 219° |
| 2026-05-08 19:50 | 3.51442 | -34.47208 | 36923 ft | 473 kts | 219° |
| 2026-05-08 19:50 | 3.46283 | -34.51284 | 36924 ft | 472 kts | 219° |
| 2026-05-08 19:51 | 3.41127 | -34.55358 | 36926 ft | 472 kts | 219° |
| 2026-05-08 19:51 | 3.35981 | -34.59423 | 36924 ft | 471 kts | 219° |
| 2026-05-08 19:52 | 3.30846 | -34.63479 | 36926 ft | 470 kts | 219° |
| 2026-05-08 19:52 | 3.25717 | -34.67530 | 36926 ft | 469 kts | 219° |
| 2026-05-08 19:53 | 3.20593 | -34.71576 | 36923 ft | 469 kts | 219° |
| 2026-05-08 19:53 | 3.15473 | -34.75619 | 36927 ft | 469 kts | 219° |
| 2026-05-08 19:54 | 3.10351 | -34.79662 | 36919 ft | 469 kts | 218° |
| 2026-05-08 19:54 | 3.05230 | -34.83704 | 36927 ft | 469 kts | 218° |
| 2026-05-08 19:55 | 3.00104 | -34.87751 | 36924 ft | 470 kts | 218° |
| 2026-05-08 19:55 | 2.94971 | -34.91802 | 36924 ft | 471 kts | 218° |
| 2026-05-08 19:56 | 2.89827 | -34.95863 | 36927 ft | 471 kts | 218° |
| 2026-05-08 19:56 | 2.84678 | -34.99927 | 36931 ft | 471 kts | 218° |
| 2026-05-08 19:57 | 2.79631 | -35.03912 | 36927 ft | 470 kts | 218° |
| 2026-05-08 19:57 | 2.74505 | -35.07959 | 36923 ft | 469 kts | 218° |
| 2026-05-08 19:58 | 2.69303 | -35.11870 | 36930 ft | 467 kts | 213° |
| 2026-05-08 19:58 | 2.63619 | -35.15017 | 36922 ft | 467 kts | 208° |
| 2026-05-08 19:59 | 2.57864 | -35.18009 | 36926 ft | 466 kts | 208° |
| 2026-05-08 19:59 | 2.52123 | -35.21018 | 36927 ft | 466 kts | 208° |
| 2026-05-08 20:00 | 2.46387 | -35.24053 | 36918 ft | 468 kts | 208° |
| 2026-05-08 20:00 | 2.40627 | -35.27111 | 36932 ft | 470 kts | 208° |
| 2026-05-08 20:01 | 2.34842 | -35.30185 | 36929 ft | 472 kts | 208° |
| 2026-05-08 20:01 | 2.29037 | -35.33266 | 36927 ft | 473 kts | 208° |
| 2026-05-08 20:02 | 2.23217 | -35.36355 | 36935 ft | 474 kts | 208° |
| 2026-05-08 20:02 | 2.17435 | -35.39422 | 36932 ft | 473 kts | 208° |
| 2026-05-08 20:03 | 2.11618 | -35.42508 | 36930 ft | 473 kts | 208° |
| 2026-05-08 20:03 | 2.05801 | -35.45594 | 36931 ft | 472 kts | 208° |
| 2026-05-08 20:04 | 1.99999 | -35.48672 | 36934 ft | 472 kts | 208° |
| 2026-05-08 20:04 | 1.94210 | -35.51742 | 36938 ft | 471 kts | 208° |
| 2026-05-08 20:05 | 1.88424 | -35.54811 | 36929 ft | 470 kts | 208° |
| 2026-05-08 20:05 | 1.82642 | -35.57877 | 36924 ft | 470 kts | 208° |
| 2026-05-08 20:06 | 1.77838 | -35.60425 | 36936 ft | 471 kts | 208° |
| 2026-05-08 20:06 | 1.72043 | -35.63497 | 36936 ft | 472 kts | 208° |
| 2026-05-08 20:07 | 1.66236 | -35.66577 | 36933 ft | 473 kts | 208° |
| 2026-05-08 20:07 | 1.60419 | -35.69661 | 36932 ft | 474 kts | 208° |
| 2026-05-08 20:08 | 1.54589 | -35.72752 | 36934 ft | 474 kts | 208° |
| 2026-05-08 20:08 | 1.48743 | -35.75851 | 36936 ft | 476 kts | 208° |
| 2026-05-08 20:09 | 1.42890 | -35.78953 | 36932 ft | 477 kts | 208° |
| 2026-05-08 20:09 | 1.37032 | -35.82059 | 36933 ft | 477 kts | 208° |
| 2026-05-08 20:10 | 1.31212 | -35.85144 | 36937 ft | 476 kts | 208° |
| 2026-05-08 20:10 | 1.25361 | -35.88244 | 36933 ft | 476 kts | 208° |
| 2026-05-08 20:11 | 1.19509 | -35.91346 | 36925 ft | 477 kts | 208° |
| 2026-05-08 20:11 | 1.13641 | -35.94456 | 36937 ft | 478 kts | 208° |
| 2026-05-08 20:12 | 1.07750 | -35.97578 | 36935 ft | 480 kts | 208° |
| 2026-05-08 20:12 | 1.01900 | -36.00678 | 36925 ft | 482 kts | 208° |
| 2026-05-08 20:13 | 0.95976 | -36.03817 | 36930 ft | 483 kts | 209° |
| 2026-05-08 20:13 | 0.90038 | -36.06964 | 36926 ft | 483 kts | 209° |
| 2026-05-08 20:14 | 0.84096 | -36.10111 | 36928 ft | 483 kts | 209° |
| 2026-05-08 20:14 | 0.78155 | -36.13259 | 36925 ft | 483 kts | 209° |
| 2026-05-08 20:15 | 0.72220 | -36.16403 | 36929 ft | 483 kts | 209° |
| 2026-05-08 20:15 | 0.66289 | -36.19545 | 36928 ft | 482 kts | 208° |
| 2026-05-08 20:16 | 0.60365 | -36.22684 | 36933 ft | 482 kts | 208° |
| 2026-05-08 20:16 | 0.54445 | -36.25820 | 36934 ft | 481 kts | 208° |
| 2026-05-08 20:17 | 0.48533 | -36.28952 | 36929 ft | 481 kts | 208° |
| 2026-05-08 20:17 | 0.42620 | -36.32078 | 36936 ft | 481 kts | 208° |
| 2026-05-08 20:18 | 0.36707 | -36.35207 | 36931 ft | 481 kts | 209° |
| 2026-05-08 20:18 | 0.30798 | -36.38342 | 36932 ft | 481 kts | 208° |
| 2026-05-08 20:19 | 0.24886 | -36.41478 | 36931 ft | 481 kts | 208° |
| 2026-05-08 20:19 | 0.19014 | -36.44589 | 36935 ft | 481 kts | 208° |
| 2026-05-08 20:20 | 0.13103 | -36.47721 | 36934 ft | 481 kts | 208° |
| 2026-05-08 20:20 | 0.07193 | -36.50851 | 36934 ft | 481 kts | 208° |
| 2026-05-08 20:21 | 0.01246 | -36.54001 | 36934 ft | 480 kts | 208° |
| 2026-05-08 20:21 | -0.04619 | -36.57108 | 36933 ft | 480 kts | 208° |
| 2026-05-08 20:22 | -0.10524 | -36.60236 | 36935 ft | 480 kts | 208° |
| 2026-05-08 20:22 | -0.16427 | -36.63363 | 36934 ft | 480 kts | 208° |
| 2026-05-08 20:23 | -0.22330 | -36.66490 | 36935 ft | 480 kts | 208° |
| 2026-05-08 20:23 | -0.28231 | -36.69616 | 36934 ft | 480 kts | 208° |
| 2026-05-08 20:24 | -0.34135 | -36.72744 | 36935 ft | 480 kts | 208° |
| 2026-05-08 20:24 | -0.40039 | -36.75872 | 36935 ft | 480 kts | 208° |
| 2026-05-08 20:25 | -0.45939 | -36.78998 | 36934 ft | 480 kts | 208° |
| 2026-05-08 20:25 | -0.51841 | -36.82125 | 36935 ft | 480 kts | 208° |
| 2026-05-08 20:26 | -0.57745 | -36.85253 | 36934 ft | 480 kts | 208° |
| 2026-05-08 20:26 | -0.63647 | -36.88381 | 36932 ft | 480 kts | 208° |
| 2026-05-08 20:27 | -0.69550 | -36.91509 | 36935 ft | 480 kts | 208° |
| 2026-05-08 20:27 | -0.75458 | -36.94641 | 36935 ft | 481 kts | 208° |
| 2026-05-08 20:28 | -0.81372 | -36.97777 | 36938 ft | 481 kts | 208° |
| 2026-05-08 20:28 | -0.87216 | -37.00878 | 36936 ft | 481 kts | 208° |
| 2026-05-08 20:29 | -0.93132 | -37.04014 | 36933 ft | 482 kts | 208° |
| 2026-05-08 20:29 | -0.99156 | -37.06849 | 36942 ft | 482 kts | 203° |
| 2026-05-08 20:30 | -1.05328 | -37.09473 | 36940 ft | 483 kts | 203° |
| 2026-05-08 20:30 | -1.11517 | -37.12101 | 36940 ft | 484 kts | 204° |
| 2026-05-08 20:31 | -1.17703 | -37.14759 | 36941 ft | 484 kts | 204° |
| 2026-05-08 20:31 | -1.23890 | -37.17433 | 36937 ft | 485 kts | 204° |
| 2026-05-08 20:32 | -1.30090 | -37.20116 | 36939 ft | 486 kts | 204° |
| 2026-05-08 20:32 | -1.36295 | -37.22800 | 36942 ft | 486 kts | 204° |
| 2026-05-08 20:33 | -1.42511 | -37.25488 | 36940 ft | 487 kts | 203° |
| 2026-05-08 20:33 | -1.48729 | -37.28176 | 36939 ft | 487 kts | 203° |
| 2026-05-08 20:34 | -1.54947 | -37.30864 | 36944 ft | 486 kts | 203° |
| 2026-05-08 20:35 | -1.64251 | -37.34889 | 36936 ft | 485 kts | 204° |
| 2026-05-08 20:35 | -1.70396 | -37.37547 | 36938 ft | 484 kts | 204° |
| 2026-05-08 20:36 | -1.76571 | -37.40218 | 36936 ft | 483 kts | 204° |
| 2026-05-08 20:36 | -1.82780 | -37.42903 | 36937 ft | 483 kts | 204° |
| 2026-05-08 20:37 | -1.88906 | -37.45553 | 36940 ft | 483 kts | 204° |
| 2026-05-08 20:37 | -1.95069 | -37.48220 | 36943 ft | 483 kts | 204° |
| 2026-05-08 20:38 | -2.01237 | -37.50889 | 36939 ft | 483 kts | 204° |
| 2026-05-08 20:38 | -2.07412 | -37.53561 | 36938 ft | 484 kts | 205° |
| 2026-05-08 20:39 | -2.13591 | -37.56235 | 36934 ft | 484 kts | 204° |
| 2026-05-08 20:39 | -2.19786 | -37.58915 | 36941 ft | 486 kts | 204° |
| 2026-05-08 20:40 | -2.26004 | -37.61606 | 36939 ft | 488 kts | 204° |
| 2026-05-08 20:40 | -2.32240 | -37.64306 | 36940 ft | 489 kts | 204° |
| 2026-05-08 20:41 | -2.38492 | -37.67013 | 36938 ft | 490 kts | 204° |
| 2026-05-08 20:41 | -2.44752 | -37.69723 | 36940 ft | 490 kts | 204° |
| 2026-05-08 20:42 | -2.51007 | -37.72431 | 36936 ft | 489 kts | 204° |
| 2026-05-08 20:42 | -2.57246 | -37.75133 | 36935 ft | 487 kts | 204° |
| 2026-05-08 20:43 | -2.63460 | -37.77825 | 36938 ft | 486 kts | 204° |
| 2026-05-08 20:43 | -2.69652 | -37.80507 | 36934 ft | 485 kts | 204° |
| 2026-05-08 20:44 | -2.75795 | -37.83168 | 36936 ft | 484 kts | 205° |
| 2026-05-08 20:44 | -2.81974 | -37.85847 | 36939 ft | 485 kts | 205° |
| 2026-05-08 20:45 | -2.88167 | -37.88531 | 36935 ft | 485 kts | 205° |
| 2026-05-08 20:45 | -2.94368 | -37.91220 | 36934 ft | 486 kts | 205° |
| 2026-05-08 20:46 | -3.00570 | -37.93910 | 36935 ft | 486 kts | 205° |
| 2026-05-08 20:46 | -3.06773 | -37.96604 | 36938 ft | 486 kts | 205° |
| 2026-05-08 20:47 | -3.12961 | -37.99305 | 36933 ft | 485 kts | 205° |
| 2026-05-08 20:47 | -3.18998 | -38.02093 | 36932 ft | 483 kts | 206° |
| 2026-05-08 20:48 | -3.25069 | -38.04949 | 36931 ft | 482 kts | 206° |
| 2026-05-08 20:48 | -3.31143 | -38.07784 | 36930 ft | 481 kts | 206° |
| 2026-05-08 20:49 | -3.37213 | -38.10595 | 36929 ft | 481 kts | 206° |
| 2026-05-08 20:49 | -3.43282 | -38.13406 | 36929 ft | 481 kts | 206° |
| 2026-05-08 20:50 | -3.49349 | -38.16220 | 36933 ft | 481 kts | 206° |
| 2026-05-08 20:50 | -3.55427 | -38.19024 | 36929 ft | 481 kts | 206° |
| 2026-05-08 20:51 | -3.61558 | -38.21729 | 36930 ft | 482 kts | 205° |
| 2026-05-08 20:51 | -3.67704 | -38.24419 | 36923 ft | 482 kts | 205° |
| 2026-05-08 20:52 | -3.73846 | -38.27125 | 36931 ft | 482 kts | 205° |
| 2026-05-08 20:52 | -3.79947 | -38.29822 | 36933 ft | 483 kts | 205° |
| 2026-05-08 20:53 | -3.86135 | -38.32558 | 36931 ft | 483 kts | 205° |
| 2026-05-08 20:53 | -3.92243 | -38.35256 | 36932 ft | 483 kts | 205° |
| 2026-05-08 20:54 | -3.98396 | -38.37962 | 36931 ft | 483 kts | 205° |
| 2026-05-08 20:54 | -4.04516 | -38.40707 | 36929 ft | 483 kts | 206° |
| 2026-05-08 20:55 | -4.09610 | -38.42994 | 36935 ft | 482 kts | 205° |
| 2026-05-08 20:55 | -4.15739 | -38.45728 | 36933 ft | 482 kts | 205° |
| 2026-05-08 20:56 | -4.21867 | -38.48464 | 36933 ft | 482 kts | 206° |
| 2026-05-08 20:56 | -4.27984 | -38.51198 | 36934 ft | 481 kts | 206° |
| 2026-05-08 20:57 | -4.33959 | -38.54176 | 36937 ft | 479 kts | 210° |
| 2026-05-08 20:57 | -4.39791 | -38.57391 | 36939 ft | 478 kts | 210° |
| 2026-05-08 20:58 | -4.45634 | -38.60585 | 36935 ft | 478 kts | 210° |
| 2026-05-08 20:58 | -4.51517 | -38.63710 | 36938 ft | 479 kts | 208° |
| 2026-05-08 20:59 | -4.57544 | -38.66573 | 36937 ft | 479 kts | 206° |
| 2026-05-08 20:59 | -4.63584 | -38.69403 | 36937 ft | 479 kts | 207° |
| 2026-05-08 21:00 | -4.69611 | -38.72279 | 36922 ft | 480 kts | 207° |
| 2026-05-08 21:00 | -4.75643 | -38.75181 | 37236 ft | 481 kts | 207° |
| 2026-05-08 21:00 | -4.78649 | -38.76626 | 37619 ft | 477 kts | 207° |
| 2026-05-08 21:01 | -4.81631 | -38.78059 | 38044 ft | 473 kts | 207° |
| 2026-05-08 21:01 | -4.84587 | -38.79479 | 38442 ft | 469 kts | 207° |
| 2026-05-08 21:01 | -4.87526 | -38.80891 | 38758 ft | 467 kts | 207° |
| 2026-05-08 21:01 | -4.90452 | -38.82298 | 38976 ft | 466 kts | 207° |
| 2026-05-08 21:02 | -4.93375 | -38.83705 | 39230 ft | 464 kts | 207° |
| 2026-05-08 21:02 | -4.96237 | -38.85084 | 39504 ft | 461 kts | 208° |
| 2026-05-08 21:02 | -4.99126 | -38.86476 | 39733 ft | 460 kts | 208° |
| 2026-05-08 21:02 | -5.02012 | -38.87868 | 39880 ft | 461 kts | 208° |
| 2026-05-08 21:03 | -5.04908 | -38.89264 | 39976 ft | 463 kts | 208° |
| 2026-05-08 21:03 | -5.10729 | -38.92071 | 40164 ft | 465 kts | 208° |
| 2026-05-08 21:03 | -5.13649 | -38.93479 | 40292 ft | 466 kts | 208° |
| 2026-05-08 21:04 | -5.16571 | -38.94887 | 40402 ft | 467 kts | 208° |
| 2026-05-08 21:04 | -5.22438 | -38.97716 | 40578 ft | 469 kts | 208° |
| 2026-05-08 21:04 | -5.25382 | -38.99136 | 40682 ft | 469 kts | 208° |
| 2026-05-08 21:05 | -5.28255 | -39.00522 | 40764 ft | 470 kts | 208° |
| 2026-05-08 21:05 | -5.34150 | -39.03366 | 40886 ft | 470 kts | 208° |
| 2026-05-08 21:06 | -5.40062 | -39.06219 | 40921 ft | 473 kts | 208° |
| 2026-05-08 21:06 | -5.46010 | -39.09086 | 40931 ft | 475 kts | 208° |
| 2026-05-08 21:07 | -5.51989 | -39.11962 | 40929 ft | 478 kts | 207° |
| 2026-05-08 21:07 | -5.57991 | -39.14850 | 40932 ft | 479 kts | 208° |
| 2026-05-08 21:08 | -5.63999 | -39.17743 | 40923 ft | 479 kts | 208° |
| 2026-05-08 21:08 | -5.69992 | -39.20630 | 40927 ft | 477 kts | 208° |
| 2026-05-08 21:09 | -5.75957 | -39.23504 | 40925 ft | 474 kts | 208° |
| 2026-05-08 21:09 | -5.81888 | -39.26362 | 40928 ft | 472 kts | 208° |
| 2026-05-08 21:10 | -5.87792 | -39.29209 | 40929 ft | 470 kts | 208° |
| 2026-05-08 21:10 | -5.93683 | -39.32050 | 40927 ft | 469 kts | 208° |
| 2026-05-08 21:11 | -5.99552 | -39.34881 | 40930 ft | 468 kts | 208° |
| 2026-05-08 21:11 | -6.05381 | -39.37693 | 40933 ft | 468 kts | 208° |
| 2026-05-08 21:12 | -6.11259 | -39.40530 | 40933 ft | 469 kts | 208° |
| 2026-05-08 21:12 | -6.17142 | -39.43370 | 40934 ft | 470 kts | 208° |
| 2026-05-08 21:13 | -6.23043 | -39.46219 | 40932 ft | 471 kts | 208° |
| 2026-05-08 21:13 | -6.28947 | -39.49068 | 40934 ft | 471 kts | 208° |
| 2026-05-08 21:14 | -6.34860 | -39.51922 | 40933 ft | 472 kts | 208° |
| 2026-05-08 21:14 | -6.40779 | -39.54780 | 40932 ft | 472 kts | 208° |
| 2026-05-08 21:15 | -6.46706 | -39.57643 | 40932 ft | 472 kts | 208° |
| 2026-05-08 21:15 | -6.52632 | -39.60507 | 40929 ft | 472 kts | 208° |
| 2026-05-08 21:16 | -6.58552 | -39.63369 | 40936 ft | 472 kts | 208° |
| 2026-05-08 21:16 | -6.64271 | -39.66133 | 40930 ft | 471 kts | 208° |
| 2026-05-08 21:17 | -6.70166 | -39.68984 | 40933 ft | 469 kts | 208° |
| 2026-05-08 21:17 | -6.76045 | -39.71828 | 40944 ft | 468 kts | 208° |
| 2026-05-08 21:18 | -6.81914 | -39.74669 | 40941 ft | 468 kts | 208° |
| 2026-05-08 21:18 | -6.87784 | -39.77510 | 40940 ft | 468 kts | 208° |
| 2026-05-08 21:19 | -6.93657 | -39.80353 | 40947 ft | 468 kts | 208° |
| 2026-05-08 21:19 | -6.99533 | -39.83198 | 40953 ft | 469 kts | 208° |
| 2026-05-08 21:20 | -7.05367 | -39.86025 | 40957 ft | 469 kts | 208° |
| 2026-05-08 21:20 | -7.11252 | -39.88878 | 40955 ft | 469 kts | 208° |
| 2026-05-08 21:21 | -7.17134 | -39.91729 | 40970 ft | 469 kts | 208° |
| 2026-05-08 21:21 | -7.23021 | -39.94585 | 40968 ft | 470 kts | 208° |
| 2026-05-08 21:22 | -7.28905 | -39.97439 | 40971 ft | 469 kts | 208° |
| 2026-05-08 21:22 | -7.34717 | -40.00260 | 40971 ft | 469 kts | 208° |
| 2026-05-08 21:23 | -7.40596 | -40.03113 | 40967 ft | 469 kts | 208° |
| 2026-05-08 21:23 | -7.46469 | -40.05965 | 40970 ft | 468 kts | 208° |
| 2026-05-08 21:24 | -7.52339 | -40.08817 | 40971 ft | 468 kts | 208° |
| 2026-05-08 21:24 | -7.58205 | -40.11667 | 40965 ft | 468 kts | 208° |
| 2026-05-08 21:25 | -7.64068 | -40.14517 | 40969 ft | 467 kts | 208° |
| 2026-05-08 21:25 | -7.69925 | -40.17367 | 40961 ft | 467 kts | 208° |
| 2026-05-08 21:26 | -7.75781 | -40.20217 | 40964 ft | 467 kts | 208° |
| 2026-05-08 21:26 | -7.81634 | -40.23067 | 40955 ft | 467 kts | 208° |
| 2026-05-08 21:27 | -7.87490 | -40.25919 | 40959 ft | 467 kts | 208° |
| 2026-05-08 21:27 | -7.93345 | -40.28772 | 40955 ft | 467 kts | 208° |
| 2026-05-08 21:28 | -7.99197 | -40.31623 | 40953 ft | 467 kts | 208° |
| 2026-05-08 21:28 | -8.05039 | -40.34472 | 40955 ft | 466 kts | 208° |
| 2026-05-08 21:29 | -8.10882 | -40.37321 | 40956 ft | 466 kts | 208° |
| 2026-05-08 21:29 | -8.16679 | -40.40149 | 40954 ft | 466 kts | 208° |
| 2026-05-08 21:30 | -8.22512 | -40.42995 | 40953 ft | 465 kts | 208° |
| 2026-05-08 21:30 | -8.28342 | -40.45841 | 40958 ft | 465 kts | 208° |
| 2026-05-08 21:31 | -8.34166 | -40.48685 | 40955 ft | 465 kts | 208° |
| 2026-05-08 21:31 | -8.39986 | -40.51528 | 40958 ft | 465 kts | 208° |
| 2026-05-08 21:32 | -8.45803 | -40.54371 | 40951 ft | 464 kts | 208° |
| 2026-05-08 21:32 | -8.51616 | -40.57212 | 40953 ft | 464 kts | 208° |
| 2026-05-08 21:33 | -8.57426 | -40.60053 | 40951 ft | 464 kts | 208° |
| 2026-05-08 21:33 | -8.63224 | -40.62889 | 40956 ft | 463 kts | 208° |
| 2026-05-08 21:34 | -8.69029 | -40.65729 | 40957 ft | 463 kts | 208° |
| 2026-05-08 21:34 | -8.74822 | -40.68565 | 40953 ft | 462 kts | 208° |
| 2026-05-08 21:35 | -8.80610 | -40.71399 | 40953 ft | 462 kts | 208° |
| 2026-05-08 21:35 | -8.86396 | -40.74233 | 40958 ft | 462 kts | 208° |
| 2026-05-08 21:36 | -8.92175 | -40.77065 | 40957 ft | 462 kts | 208° |
| 2026-05-08 21:36 | -8.97949 | -40.79895 | 40956 ft | 461 kts | 208° |
| 2026-05-08 21:37 | -9.03724 | -40.82727 | 40958 ft | 461 kts | 208° |
| 2026-05-08 21:37 | -9.09503 | -40.85561 | 40961 ft | 461 kts | 208° |
| 2026-05-08 21:38 | -9.15279 | -40.88396 | 40958 ft | 462 kts | 208° |
| 2026-05-08 21:38 | -9.21058 | -40.91232 | 40959 ft | 462 kts | 208° |
| 2026-05-08 21:39 | -9.26796 | -40.94050 | 40957 ft | 461 kts | 208° |
| 2026-05-08 21:39 | -9.32573 | -40.96888 | 40962 ft | 461 kts | 208° |
| 2026-05-08 21:40 | -9.38349 | -40.99727 | 40961 ft | 461 kts | 208° |
| 2026-05-08 21:40 | -9.44055 | -41.02532 | 40961 ft | 461 kts | 208° |
| 2026-05-08 21:41 | -9.52720 | -41.06793 | 40963 ft | 461 kts | 208° |
| 2026-05-08 21:41 | -9.58491 | -41.09634 | 40970 ft | 461 kts | 208° |
| 2026-05-08 21:42 | -9.64260 | -41.12474 | 40969 ft | 461 kts | 208° |
| 2026-05-08 21:42 | -9.70028 | -41.15321 | 40980 ft | 461 kts | 208° |
| 2026-05-08 21:43 | -9.74818 | -41.17689 | 40972 ft | 461 kts | 208° |
| 2026-05-08 21:43 | -9.80583 | -41.20539 | 40983 ft | 460 kts | 208° |
| 2026-05-08 21:44 | -9.86338 | -41.23386 | 40987 ft | 460 kts | 208° |
| 2026-05-08 21:44 | -9.92100 | -41.26234 | 40991 ft | 461 kts | 208° |
| 2026-05-08 21:45 | -9.97866 | -41.29075 | 40987 ft | 461 kts | 208° |
| 2026-05-08 21:45 | -10.03629 | -41.31916 | 41003 ft | 461 kts | 208° |
| 2026-05-08 21:46 | -10.09392 | -41.34760 | 40999 ft | 460 kts | 208° |
| 2026-05-08 21:46 | -10.15154 | -41.37604 | 41005 ft | 460 kts | 208° |
| 2026-05-08 21:47 | -10.20913 | -41.40448 | 41009 ft | 460 kts | 208° |
| 2026-05-08 21:47 | -10.26666 | -41.43290 | 41009 ft | 460 kts | 208° |
| 2026-05-08 21:48 | -10.32413 | -41.46130 | 41010 ft | 459 kts | 208° |
| 2026-05-08 21:48 | -10.38153 | -41.48970 | 41009 ft | 459 kts | 208° |
| 2026-05-08 21:49 | -10.43892 | -41.51810 | 41009 ft | 459 kts | 208° |
| 2026-05-08 21:49 | -10.49634 | -41.54652 | 41007 ft | 459 kts | 208° |
| 2026-05-08 21:50 | -10.55383 | -41.57499 | 41003 ft | 460 kts | 208° |
| 2026-05-08 21:50 | -10.61132 | -41.60344 | 41004 ft | 460 kts | 208° |
| 2026-05-08 21:51 | -10.66885 | -41.63184 | 40994 ft | 460 kts | 208° |
| 2026-05-08 21:51 | -10.72639 | -41.66028 | 40996 ft | 460 kts | 208° |
| 2026-05-08 21:52 | -10.78390 | -41.68873 | 40992 ft | 459 kts | 208° |
| 2026-05-08 21:52 | -10.84097 | -41.71697 | 40987 ft | 459 kts | 208° |
| 2026-05-08 21:53 | -10.89833 | -41.74544 | 40995 ft | 458 kts | 208° |
| 2026-05-08 21:53 | -10.95562 | -41.77395 | 41003 ft | 458 kts | 208° |
| 2026-05-08 21:54 | -11.01287 | -41.80246 | 40990 ft | 458 kts | 208° |
| 2026-05-08 21:54 | -11.07011 | -41.83097 | 41006 ft | 458 kts | 208° |
| 2026-05-08 21:55 | -11.12736 | -41.85948 | 41005 ft | 458 kts | 208° |
| 2026-05-08 21:56 | -11.21314 | -41.90224 | 41011 ft | 458 kts | 208° |
| 2026-05-08 21:56 | -11.27033 | -41.93076 | 41014 ft | 457 kts | 208° |
| 2026-05-08 21:57 | -11.32742 | -41.95924 | 41007 ft | 456 kts | 208° |
| 2026-05-08 21:57 | -11.38390 | -41.98743 | 41003 ft | 455 kts | 208° |
| 2026-05-08 21:58 | -11.43971 | -42.01530 | 41013 ft | 455 kts | 208° |
| 2026-05-08 21:58 | -11.49654 | -42.04370 | 41019 ft | 455 kts | 208° |
| 2026-05-08 21:59 | -11.55333 | -42.07209 | 41018 ft | 455 kts | 208° |
| 2026-05-08 21:59 | -11.61058 | -42.10072 | 41019 ft | 455 kts | 208° |
| 2026-05-08 22:00 | -11.66714 | -42.12902 | 41033 ft | 456 kts | 208° |
| 2026-05-08 22:00 | -11.72408 | -42.15752 | 41039 ft | 456 kts | 208° |
| 2026-05-08 22:01 | -11.78110 | -42.18603 | 41048 ft | 456 kts | 208° |
| 2026-05-08 22:01 | -11.83811 | -42.21453 | 41029 ft | 456 kts | 208° |
| 2026-05-08 22:02 | -11.89509 | -42.24302 | 41043 ft | 456 kts | 208° |
| 2026-05-08 22:02 | -11.95205 | -42.27154 | 41037 ft | 456 kts | 208° |
| 2026-05-08 22:03 | -12.00889 | -42.30000 | 41039 ft | 455 kts | 209° |
| 2026-05-08 22:03 | -12.06569 | -42.32847 | 41030 ft | 454 kts | 209° |
| 2026-05-08 22:04 | -12.12237 | -42.35689 | 41032 ft | 453 kts | 209° |
| 2026-05-08 22:04 | -12.17895 | -42.38527 | 41018 ft | 453 kts | 209° |
| 2026-05-08 22:05 | -12.23548 | -42.41364 | 41024 ft | 452 kts | 209° |
| 2026-05-08 22:05 | -12.29198 | -42.44200 | 41014 ft | 452 kts | 209° |
| 2026-05-08 22:06 | -12.34847 | -42.47035 | 40994 ft | 452 kts | 209° |
| 2026-05-08 22:06 | -12.40496 | -42.49872 | 40994 ft | 452 kts | 209° |
| 2026-05-08 22:07 | -12.46095 | -42.52686 | 40991 ft | 451 kts | 209° |
| 2026-05-08 22:07 | -12.51733 | -42.55521 | 40988 ft | 451 kts | 209° |
| 2026-05-08 22:08 | -12.57373 | -42.58359 | 40985 ft | 452 kts | 209° |
| 2026-05-08 22:08 | -12.63010 | -42.61196 | 40986 ft | 451 kts | 209° |
| 2026-05-08 22:09 | -12.68647 | -42.64035 | 40982 ft | 451 kts | 209° |
| 2026-05-08 22:09 | -12.74283 | -42.66875 | 40991 ft | 452 kts | 209° |
| 2026-05-08 22:10 | -12.79922 | -42.69718 | 40986 ft | 452 kts | 209° |
| 2026-05-08 22:10 | -12.85568 | -42.72566 | 40989 ft | 452 kts | 209° |
| 2026-05-08 22:11 | -12.91207 | -42.75411 | 40999 ft | 452 kts | 209° |
| 2026-05-08 22:11 | -12.96849 | -42.78260 | 41001 ft | 452 kts | 209° |
| 2026-05-08 22:12 | -13.02486 | -42.81107 | 40996 ft | 452 kts | 209° |
| 2026-05-08 22:12 | -13.08131 | -42.83960 | 40990 ft | 452 kts | 209° |
| 2026-05-08 22:13 | -13.13777 | -42.86815 | 40994 ft | 452 kts | 209° |
| 2026-05-08 22:13 | -13.19415 | -42.89667 | 41002 ft | 452 kts | 209° |
| 2026-05-08 22:14 | -13.25044 | -42.92517 | 41002 ft | 451 kts | 209° |
| 2026-05-08 22:14 | -13.30671 | -42.95366 | 40990 ft | 451 kts | 209° |
| 2026-05-08 22:15 | -13.36297 | -42.98217 | 41001 ft | 451 kts | 209° |
| 2026-05-08 22:15 | -13.41860 | -43.01037 | 40995 ft | 451 kts | 209° |
| 2026-05-08 22:16 | -13.47483 | -43.03890 | 40968 ft | 451 kts | 209° |
| 2026-05-08 22:16 | -13.53100 | -43.06740 | 40992 ft | 450 kts | 209° |
| 2026-05-08 22:17 | -13.58675 | -43.09572 | 40978 ft | 450 kts | 209° |
| 2026-05-08 22:17 | -13.64283 | -43.12421 | 40992 ft | 450 kts | 209° |
| 2026-05-08 22:18 | -13.69896 | -43.15274 | 40983 ft | 450 kts | 209° |
| 2026-05-08 22:18 | -13.75505 | -43.18126 | 40985 ft | 449 kts | 209° |
| 2026-05-08 22:19 | -13.81107 | -43.20977 | 40985 ft | 449 kts | 209° |
| 2026-05-08 22:19 | -13.86707 | -43.23829 | 40983 ft | 449 kts | 209° |
| 2026-05-08 22:20 | -13.92302 | -43.26680 | 40984 ft | 449 kts | 209° |
| 2026-05-08 22:20 | -13.97895 | -43.29531 | 40982 ft | 448 kts | 209° |
| 2026-05-08 22:21 | -14.03487 | -43.32368 | 40985 ft | 448 kts | 209° |
| 2026-05-08 22:21 | -14.09094 | -43.35189 | 40983 ft | 448 kts | 209° |
| 2026-05-08 22:22 | -14.14701 | -43.38012 | 40994 ft | 448 kts | 209° |
| 2026-05-08 22:22 | -14.20302 | -43.40837 | 40992 ft | 448 kts | 209° |
| 2026-05-08 22:23 | -14.25904 | -43.43666 | 40983 ft | 448 kts | 209° |
| 2026-05-08 22:23 | -14.31502 | -43.46494 | 40990 ft | 448 kts | 209° |
| 2026-05-08 22:24 | -14.37104 | -43.49326 | 40994 ft | 449 kts | 209° |
| 2026-05-08 22:24 | -14.42711 | -43.52163 | 40996 ft | 449 kts | 209° |
| 2026-05-08 22:25 | -14.48321 | -43.55002 | 40996 ft | 449 kts | 209° |
| 2026-05-08 22:25 | -14.53932 | -43.57844 | 40994 ft | 449 kts | 209° |
| 2026-05-08 22:26 | -14.59540 | -43.60685 | 40991 ft | 449 kts | 209° |
| 2026-05-08 22:26 | -14.65148 | -43.63528 | 40994 ft | 449 kts | 209° |
| 2026-05-08 22:27 | -14.70754 | -43.66372 | 40994 ft | 449 kts | 209° |
| 2026-05-08 22:27 | -14.76353 | -43.69214 | 40992 ft | 448 kts | 209° |
| 2026-05-08 22:28 | -14.81912 | -43.72038 | 40995 ft | 448 kts | 209° |
| 2026-05-08 22:28 | -14.87510 | -43.74883 | 41001 ft | 448 kts | 210° |
| 2026-05-08 22:29 | -14.93105 | -43.77728 | 40994 ft | 448 kts | 210° |
| 2026-05-08 22:29 | -14.98697 | -43.80573 | 40996 ft | 448 kts | 210° |
| 2026-05-08 22:30 | -15.03340 | -43.82930 | 40994 ft | 448 kts | 209° |
| 2026-05-08 22:30 | -15.08946 | -43.85738 | 41004 ft | 447 kts | 209° |
| 2026-05-08 22:31 | -15.14550 | -43.88541 | 41002 ft | 447 kts | 209° |
| 2026-05-08 22:31 | -15.20157 | -43.91352 | 40999 ft | 447 kts | 209° |
| 2026-05-08 22:32 | -15.25755 | -43.94163 | 41001 ft | 447 kts | 209° |
| 2026-05-08 22:32 | -15.31355 | -43.96977 | 41011 ft | 447 kts | 209° |
| 2026-05-08 22:33 | -15.36951 | -43.99790 | 41011 ft | 447 kts | 209° |
| 2026-05-08 22:33 | -15.42480 | -44.02572 | 41004 ft | 447 kts | 209° |
| 2026-05-08 22:34 | -15.48080 | -44.05389 | 41018 ft | 447 kts | 209° |
| 2026-05-08 22:34 | -15.53707 | -44.08158 | 41032 ft | 447 kts | 209° |
| 2026-05-08 22:35 | -15.59333 | -44.10918 | 41024 ft | 447 kts | 209° |
| 2026-05-08 22:35 | -15.64950 | -44.13695 | 41022 ft | 447 kts | 209° |
| 2026-05-08 22:36 | -15.70562 | -44.16481 | 41022 ft | 447 kts | 209° |
| 2026-05-08 22:36 | -15.76169 | -44.19267 | 41034 ft | 447 kts | 209° |
| 2026-05-08 22:37 | -15.81777 | -44.22053 | 41034 ft | 447 kts | 209° |
| 2026-05-08 22:37 | -15.87379 | -44.24837 | 41029 ft | 446 kts | 209° |
| 2026-05-08 22:38 | -15.92980 | -44.27624 | 41039 ft | 446 kts | 209° |
| 2026-05-08 22:38 | -15.98548 | -44.30395 | 41039 ft | 446 kts | 209° |
| 2026-05-08 22:39 | -16.04148 | -44.33184 | 41033 ft | 446 kts | 209° |
| 2026-05-08 22:39 | -16.09749 | -44.35974 | 41041 ft | 446 kts | 209° |
| 2026-05-08 22:40 | -16.15345 | -44.38765 | 41034 ft | 446 kts | 209° |
| 2026-05-08 22:40 | -16.20944 | -44.41558 | 41043 ft | 446 kts | 209° |
| 2026-05-08 22:41 | -16.26543 | -44.44353 | 41042 ft | 447 kts | 209° |
| 2026-05-08 22:41 | -16.32148 | -44.47154 | 41037 ft | 447 kts | 209° |
| 2026-05-08 22:42 | -16.37755 | -44.49957 | 41043 ft | 447 kts | 209° |
| 2026-05-08 22:42 | -16.43364 | -44.52762 | 41049 ft | 447 kts | 209° |
| 2026-05-08 22:43 | -16.48970 | -44.55568 | 41038 ft | 447 kts | 209° |
| 2026-05-08 22:43 | -16.54575 | -44.58376 | 41034 ft | 447 kts | 209° |
| 2026-05-08 22:44 | -16.60179 | -44.61184 | 41040 ft | 447 kts | 209° |
| 2026-05-08 22:44 | -16.65777 | -44.63992 | 41038 ft | 446 kts | 209° |
| 2026-05-08 22:45 | -16.71371 | -44.66800 | 41033 ft | 446 kts | 209° |
| 2026-05-08 22:45 | -16.76884 | -44.69568 | 41026 ft | 446 kts | 209° |
| 2026-05-08 22:46 | -16.82465 | -44.72373 | 41029 ft | 445 kts | 209° |
| 2026-05-08 22:46 | -16.87999 | -44.75175 | 41042 ft | 445 kts | 210° |
| 2026-05-08 22:47 | -16.93537 | -44.78057 | 41015 ft | 445 kts | 210° |
| 2026-05-08 22:47 | -16.99071 | -44.80948 | 41029 ft | 444 kts | 210° |
| 2026-05-08 22:48 | -17.04596 | -44.83827 | 41033 ft | 444 kts | 210° |
| 2026-05-08 22:48 | -17.10121 | -44.86704 | 41037 ft | 444 kts | 210° |
| 2026-05-08 22:49 | -17.15643 | -44.89580 | 41045 ft | 443 kts | 210° |
| 2026-05-08 22:49 | -17.23924 | -44.93898 | 41025 ft | 443 kts | 210° |
| 2026-05-08 22:50 | -17.29444 | -44.96779 | 41052 ft | 443 kts | 210° |
| 2026-05-08 22:50 | -17.34962 | -44.99662 | 41035 ft | 443 kts | 210° |
| 2026-05-08 22:51 | -17.40411 | -45.02509 | 41040 ft | 443 kts | 211° |
| 2026-05-08 22:51 | -17.45878 | -45.05486 | 41036 ft | 443 kts | 212° |
| 2026-05-08 22:52 | -17.51317 | -45.08507 | 41043 ft | 442 kts | 212° |
| 2026-05-08 22:52 | -17.56763 | -45.11518 | 41056 ft | 443 kts | 212° |
| 2026-05-08 22:53 | -17.62216 | -45.14525 | 41045 ft | 443 kts | 211° |
| 2026-05-08 22:53 | -17.67674 | -45.17528 | 41049 ft | 443 kts | 211° |
| 2026-05-08 22:54 | -17.73193 | -45.20415 | 41047 ft | 444 kts | 210° |
| 2026-05-08 22:54 | -17.78735 | -45.23266 | 41051 ft | 443 kts | 210° |
| 2026-05-08 22:55 | -17.84267 | -45.26134 | 41052 ft | 443 kts | 210° |
| 2026-05-08 22:55 | -17.89755 | -45.28992 | 41053 ft | 443 kts | 210° |
| 2026-05-08 22:56 | -17.95278 | -45.31872 | 41055 ft | 443 kts | 210° |
| 2026-05-08 22:56 | -18.00792 | -45.34750 | 41054 ft | 443 kts | 210° |
| 2026-05-08 22:57 | -18.06314 | -45.37631 | 41051 ft | 443 kts | 210° |
| 2026-05-08 22:57 | -18.11841 | -45.40497 | 41041 ft | 443 kts | 210° |
| 2026-05-08 22:58 | -18.17369 | -45.43359 | 41052 ft | 443 kts | 210° |
| 2026-05-08 22:58 | -18.22896 | -45.46227 | 41047 ft | 443 kts | 210° |
| 2026-05-08 22:59 | -18.28423 | -45.49098 | 41040 ft | 443 kts | 210° |
| 2026-05-08 22:59 | -18.33945 | -45.51970 | 41043 ft | 443 kts | 210° |
| 2026-05-08 23:00 | -18.39470 | -45.54844 | 41044 ft | 443 kts | 210° |
| 2026-05-08 23:00 | -18.44988 | -45.57729 | 41054 ft | 442 kts | 211° |
| 2026-05-08 23:01 | -18.50409 | -45.60768 | 41049 ft | 441 kts | 212° |
| 2026-05-08 23:01 | -18.55799 | -45.63850 | 41047 ft | 441 kts | 212° |
| 2026-05-08 23:02 | -18.61203 | -45.66919 | 41047 ft | 441 kts | 212° |
| 2026-05-08 23:02 | -18.66552 | -45.69944 | 41052 ft | 441 kts | 212° |
| 2026-05-08 23:03 | -18.71883 | -45.72959 | 41054 ft | 441 kts | 212° |
| 2026-05-08 23:03 | -18.77291 | -45.76021 | 41040 ft | 441 kts | 212° |
| 2026-05-08 23:04 | -18.82692 | -45.79080 | 41061 ft | 441 kts | 212° |
| 2026-05-08 23:04 | -18.88096 | -45.82141 | 41057 ft | 441 kts | 212° |
| 2026-05-08 23:05 | -18.93495 | -45.85201 | 41057 ft | 441 kts | 212° |
| 2026-05-08 23:05 | -18.98897 | -45.88265 | 41059 ft | 441 kts | 212° |
| 2026-05-08 23:06 | -19.04294 | -45.91330 | 41078 ft | 441 kts | 212° |
| 2026-05-08 23:06 | -19.09697 | -45.94400 | 41063 ft | 441 kts | 212° |
| 2026-05-08 23:07 | -19.15093 | -45.97468 | 41081 ft | 440 kts | 212° |
| 2026-05-08 23:07 | -19.20415 | -46.00499 | 41062 ft | 440 kts | 212° |
| 2026-05-08 23:08 | -19.25807 | -46.03573 | 41078 ft | 440 kts | 212° |
| 2026-05-08 23:08 | -19.31161 | -46.06630 | 41075 ft | 440 kts | 213° |
| 2026-05-08 23:09 | -19.36544 | -46.09705 | 41075 ft | 439 kts | 213° |
| 2026-05-08 23:09 | -19.41925 | -46.12780 | 41075 ft | 439 kts | 213° |
| 2026-05-08 23:10 | -19.47295 | -46.15853 | 41072 ft | 439 kts | 213° |
| 2026-05-08 23:10 | -19.52659 | -46.18925 | 41092 ft | 438 kts | 213° |
| 2026-05-08 23:11 | -19.58023 | -46.21999 | 41078 ft | 438 kts | 213° |
| 2026-05-08 23:11 | -19.63389 | -46.25076 | 41087 ft | 438 kts | 213° |
| 2026-05-08 23:12 | -19.68754 | -46.28156 | 41076 ft | 439 kts | 213° |
| 2026-05-08 23:12 | -19.74120 | -46.31237 | 41081 ft | 438 kts | 213° |
| 2026-05-08 23:13 | -19.79482 | -46.34318 | 41081 ft | 438 kts | 213° |
| 2026-05-08 23:13 | -19.84850 | -46.37403 | 41086 ft | 438 kts | 213° |
| 2026-05-08 23:14 | -19.90211 | -46.40488 | 41078 ft | 438 kts | 213° |
| 2026-05-08 23:14 | -19.95534 | -46.43552 | 41080 ft | 437 kts | 214° |
| 2026-05-08 23:15 | -20.00868 | -46.46628 | 41080 ft | 436 kts | 214° |
| 2026-05-08 23:15 | -20.06194 | -46.49701 | 41077 ft | 435 kts | 214° |
| 2026-05-08 23:16 | -20.11514 | -46.52772 | 41073 ft | 434 kts | 214° |
| 2026-05-08 23:16 | -20.16827 | -46.55842 | 41072 ft | 434 kts | 214° |
| 2026-05-08 23:17 | -20.22135 | -46.58911 | 41075 ft | 434 kts | 214° |
| 2026-05-08 23:17 | -20.27446 | -46.61985 | 41066 ft | 434 kts | 214° |
| 2026-05-08 23:18 | -20.31861 | -46.64542 | 41065 ft | 434 kts | 214° |
| 2026-05-08 23:18 | -20.37167 | -46.67618 | 41049 ft | 434 kts | 214° |
| 2026-05-08 23:19 | -20.42475 | -46.70695 | 41046 ft | 435 kts | 214° |
| 2026-05-08 23:19 | -20.47786 | -46.73779 | 41036 ft | 435 kts | 214° |
| 2026-05-08 23:20 | -20.53099 | -46.76864 | 41046 ft | 435 kts | 214° |
| 2026-05-08 23:20 | -20.58413 | -46.79955 | 41038 ft | 435 kts | 214° |
| 2026-05-08 23:21 | -20.63734 | -46.83051 | 41034 ft | 435 kts | 214° |
| 2026-05-08 23:21 | -20.69044 | -46.86144 | 41038 ft | 435 kts | 214° |
| 2026-05-08 23:22 | -20.74363 | -46.89227 | 41034 ft | 435 kts | 212° |
| 2026-05-08 23:22 | -20.77225 | -46.90358 | 41033 ft | 445 kts | 200° |
| 2026-05-08 23:22 | -20.80295 | -46.90928 | 41056 ft | 452 kts | 192° |
| 2026-05-08 23:23 | -20.83473 | -46.90968 | 41033 ft | 463 kts | 181° |
| 2026-05-08 23:23 | -20.86682 | -46.90531 | 41048 ft | 466 kts | 179° |
| 2026-05-08 23:23 | -20.93112 | -46.89431 | 41035 ft | 469 kts | 178° |
| 2026-05-08 23:24 | -20.99561 | -46.88323 | 41035 ft | 470 kts | 178° |
| 2026-05-08 23:24 | -21.06035 | -46.87276 | 40722 ft | 476 kts | 179° |
| 2026-05-08 23:25 | -21.09326 | -46.86761 | 40126 ft | 477 kts | 179° |
| 2026-05-08 23:25 | -21.12604 | -46.86247 | 39537 ft | 475 kts | 179° |
| 2026-05-08 23:25 | -21.15867 | -46.85734 | 38971 ft | 472 kts | 179° |
| 2026-05-08 23:25 | -21.19105 | -46.85225 | 38464 ft | 468 kts | 179° |
| 2026-05-08 23:26 | -21.22308 | -46.84720 | 37939 ft | 463 kts | 179° |
| 2026-05-08 23:26 | -21.25483 | -46.84221 | 37406 ft | 460 kts | 179° |
| 2026-05-08 23:26 | -21.28653 | -46.83723 | 36881 ft | 460 kts | 179° |
| 2026-05-08 23:26 | -21.31811 | -46.83225 | 36394 ft | 458 kts | 179° |
| 2026-05-08 23:27 | -21.34956 | -46.82729 | 35972 ft | 455 kts | 178° |
| 2026-05-08 23:27 | -21.38077 | -46.82235 | 35580 ft | 452 kts | 178° |
| 2026-05-08 23:27 | -21.41183 | -46.81744 | 35196 ft | 449 kts | 178° |
| 2026-05-08 23:27 | -21.44270 | -46.81257 | 34778 ft | 447 kts | 178° |
| 2026-05-08 23:28 | -21.47343 | -46.80773 | 34358 ft | 445 kts | 178° |
| 2026-05-08 23:28 | -21.50406 | -46.80293 | 33925 ft | 443 kts | 178° |
| 2026-05-08 23:28 | -21.53451 | -46.79814 | 33455 ft | 442 kts | 178° |
| 2026-05-08 23:28 | -21.56446 | -46.79341 | 33009 ft | 440 kts | 177° |
| 2026-05-08 23:29 | -21.59507 | -46.78857 | 32564 ft | 438 kts | 177° |
| 2026-05-08 23:29 | -21.62478 | -46.78387 | 32139 ft | 437 kts | 177° |
| 2026-05-08 23:29 | -21.65483 | -46.77913 | 31713 ft | 435 kts | 176° |
| 2026-05-08 23:29 | -21.68474 | -46.77440 | 31278 ft | 433 kts | 176° |
| 2026-05-08 23:30 | -21.71451 | -46.76970 | 30867 ft | 432 kts | 176° |
| 2026-05-08 23:30 | -21.74426 | -46.76500 | 30394 ft | 433 kts | 176° |
| 2026-05-08 23:30 | -21.77405 | -46.76029 | 29900 ft | 433 kts | 176° |
| 2026-05-08 23:30 | -21.80381 | -46.75558 | 29496 ft | 431 kts | 176° |
| 2026-05-08 23:31 | -21.83332 | -46.75090 | 29160 ft | 427 kts | 176° |
| 2026-05-08 23:31 | -21.86258 | -46.74625 | 28799 ft | 423 kts | 176° |
| 2026-05-08 23:31 | -21.89163 | -46.74165 | 28449 ft | 421 kts | 176° |
| 2026-05-08 23:31 | -21.92054 | -46.73707 | 28065 ft | 419 kts | 176° |
| 2026-05-08 23:32 | -21.94930 | -46.73252 | 27697 ft | 417 kts | 176° |
| 2026-05-08 23:32 | -21.97794 | -46.72799 | 27329 ft | 416 kts | 176° |
| 2026-05-08 23:32 | -22.00647 | -46.72347 | 26955 ft | 414 kts | 176° |
| 2026-05-08 23:32 | -22.03490 | -46.71896 | 26636 ft | 412 kts | 176° |
| 2026-05-08 23:33 | -22.06318 | -46.71447 | 26308 ft | 410 kts | 176° |
| 2026-05-08 23:33 | -22.09130 | -46.71000 | 25987 ft | 408 kts | 176° |
| 2026-05-08 23:33 | -22.11931 | -46.70555 | 25670 ft | 406 kts | 175° |
| 2026-05-08 23:33 | -22.14716 | -46.70113 | 25352 ft | 404 kts | 176° |
| 2026-05-08 23:34 | -22.17487 | -46.69687 | 25063 ft | 401 kts | 176° |
| 2026-05-08 23:34 | -22.20251 | -46.69247 | 24715 ft | 401 kts | 176° |
| 2026-05-08 23:34 | -22.23013 | -46.68801 | 24397 ft | 400 kts | 175° |
| 2026-05-08 23:34 | -22.25766 | -46.68357 | 24107 ft | 399 kts | 175° |
| 2026-05-08 23:35 | -22.28505 | -46.67918 | 23825 ft | 397 kts | 175° |
| 2026-05-08 23:35 | -22.31229 | -46.67484 | 23549 ft | 395 kts | 175° |
| 2026-05-08 23:35 | -22.33948 | -46.67052 | 23152 ft | 396 kts | 175° |
| 2026-05-08 23:35 | -22.36685 | -46.66617 | 22467 ft | 400 kts | 175° |
| 2026-05-08 23:36 | -22.39429 | -46.66542 | 21794 ft | 393 kts | 194° |
| 2026-05-08 23:36 | -22.41994 | -46.67465 | 21005 ft | 390 kts | 213° |
| 2026-05-08 23:36 | -22.44193 | -46.69169 | 20224 ft | 389 kts | 229° |
| 2026-05-08 23:36 | -22.45895 | -46.71355 | 19651 ft | 384 kts | 237° |
| 2026-05-08 23:37 | -22.47515 | -46.73706 | 19025 ft | 386 kts | 238° |
| 2026-05-08 23:37 | -22.49077 | -46.76001 | 18381 ft | 378 kts | 237° |
| 2026-05-08 23:37 | -22.50620 | -46.78243 | 17608 ft | 365 kts | 237° |
| 2026-05-08 23:37 | -22.52124 | -46.80404 | 16793 ft | 355 kts | 237° |
| 2026-05-08 23:38 | -22.53597 | -46.82503 | 15984 ft | 346 kts | 237° |
| 2026-05-08 23:38 | -22.55039 | -46.84551 | 15203 ft | 339 kts | 236° |
| 2026-05-08 23:38 | -22.56453 | -46.86557 | 14438 ft | 331 kts | 236° |
| 2026-05-08 23:38 | -22.57832 | -46.88514 | 13569 ft | 324 kts | 236° |
| 2026-05-08 23:39 | -22.59184 | -46.90433 | 12592 ft | 318 kts | 237° |
| 2026-05-08 23:39 | -22.60516 | -46.92326 | 11618 ft | 314 kts | 237° |
| 2026-05-08 23:39 | -22.61831 | -46.94194 | 10671 ft | 311 kts | 237° |
| 2026-05-08 23:39 | -22.63133 | -46.96045 | 9719 ft | 308 kts | 237° |
| 2026-05-08 23:40 | -22.64430 | -46.97888 | 8638 ft | 307 kts | 237° |
| 2026-05-08 23:40 | -22.65749 | -46.99702 | 7592 ft | 307 kts | 230° |
| 2026-05-08 23:40 | -22.67206 | -47.01328 | 6679 ft | 304 kts | 235° |
| 2026-05-08 23:40 | -22.68458 | -47.03152 | 6356 ft | 299 kts | 239° |
| 2026-05-08 23:41 | -22.69631 | -47.04977 | 6156 ft | 292 kts | 239° |
| 2026-05-08 23:41 | -22.70792 | -47.06754 | 6003 ft | 284 kts | 238° |
| 2026-05-08 23:41 | -22.71814 | -47.08278 | 5978 ft | 274 kts | 238° |
| 2026-05-08 23:41 | -22.72942 | -47.09934 | 5984 ft | 274 kts | 238° |
| 2026-05-08 23:42 | -22.74079 | -47.11585 | 5995 ft | 273 kts | 237° |
| 2026-05-08 23:42 | -22.75220 | -47.13232 | 6006 ft | 274 kts | 238° |
| 2026-05-08 23:42 | -22.76371 | -47.14883 | 5992 ft | 275 kts | 237° |
| 2026-05-08 23:42 | -22.77528 | -47.16538 | 6011 ft | 276 kts | 237° |
| 2026-05-08 23:43 | -22.78688 | -47.18194 | 5997 ft | 276 kts | 238° |
| 2026-05-08 23:43 | -22.79851 | -47.19852 | 5991 ft | 276 kts | 238° |
| 2026-05-08 23:43 | -22.81004 | -47.21499 | 6000 ft | 274 kts | 238° |
| 2026-05-08 23:43 | -22.82243 | -47.23053 | 5990 ft | 275 kts | 221° |
| 2026-05-08 23:44 | -22.84039 | -47.23907 | 6008 ft | 293 kts | 189° |
| 2026-05-08 23:44 | -22.86052 | -47.23786 | 6000 ft | 283 kts | 176° |
| 2026-05-08 23:44 | -22.87938 | -47.23992 | 6000 ft | 267 kts | 201° |
| 2026-05-08 23:44 | -22.89624 | -47.24726 | 5995 ft | 255 kts | 211° |
| 2026-05-08 23:45 | -22.91319 | -47.25270 | 5998 ft | 257 kts | 182° |
| 2026-05-08 23:45 | -22.93004 | -47.24838 | 5992 ft | 247 kts | 147° |
| 2026-05-08 23:45 | -22.94149 | -47.23590 | 6044 ft | 233 kts | 113° |
| 2026-05-08 23:45 | -22.94835 | -47.22009 | 6074 ft | 234 kts | 114° |
| 2026-05-08 23:46 | -22.95882 | -47.20654 | 6019 ft | 238 kts | 144° |
| 2026-05-08 23:46 | -22.97429 | -47.20063 | 5910 ft | 238 kts | 178° |
| 2026-05-08 23:46 | -22.99029 | -47.20398 | 5532 ft | 235 kts | 211° |
| 2026-05-08 23:46 | -23.00214 | -47.21549 | 4988 ft | 228 kts | 245° |
| 2026-05-08 23:47 | -23.00614 | -47.23127 | 4492 ft | 210 kts | 278° |
| 2026-05-08 23:47 | -23.00149 | -47.24511 | 4083 ft | 185 kts | 315° |
| 2026-05-08 23:47 | -22.99116 | -47.25121 | 3916 ft | 165 kts | 352° |
| 2026-05-08 23:47 | -22.98098 | -47.24781 | 3832 ft | 151 kts | 35° |
| 2026-05-08 23:48 | -22.97513 | -47.23837 | 3827 ft | 149 kts | 43° |
| 2026-05-08 23:48 | -22.96776 | -47.23063 | 3707 ft | 150 kts | 38° |
| 2026-05-08 23:48 | -22.96085 | -47.22218 | 3551 ft | 149 kts | 42° |
| 2026-05-08 23:48 | -22.95639 | -47.21193 | 3414 ft | 155 kts | 72° |
| 2026-05-08 23:49 | -22.95864 | -47.20004 | 3456 ft | 176 kts | 115° |
| 2026-05-08 23:49 | -22.96719 | -47.19003 | 3172 ft | 181 kts | 133° |
| 2026-05-08 23:49 | -22.97523 | -47.18005 | 2984 ft | 169 kts | 122° |
| 2026-05-08 23:49 | -22.98178 | -47.17002 | 2736 ft | 157 kts | 125° |
| 2026-05-08 23:50 | -22.98832 | -47.16085 | 2521 ft | 157 kts | 127° |
| 2026-05-08 23:50 | -22.99502 | -47.15159 | 2308 ft | 155 kts | 127° |
| 2026-05-08 23:50 | -23.00167 | -47.14254 | 2151 ft | 144 kts | 125° |
| 2026-05-08 23:50 | -23.00689 | -47.13523 | 2152 ft | 97 kts | 128° |
| 2026-05-08 23:51 | -23.01005 | -47.13084 | 2160 ft | 57 kts | 128° |
| 2026-05-08 23:51 | -23.01174 | -47.12890 | 2164 ft | 23 kts | 145° |
| 2026-05-08 23:51 | -23.01306 | -47.12817 | 2166 ft | 13 kts | 158° |
| 2026-05-08 23:51 | -23.01323 | -47.12809 | 2162 ft | 0 kts | 158° |
| 2026-05-08 23:52 | -23.01327 | -47.12807 | 2161 ft | 0 kts | 159° |
| 2026-05-08 23:53 | -23.01358 | -47.12804 | 2163 ft | 8 kts | 195° |
| 2026-05-08 23:53 | -23.01380 | -47.12857 | 2166 ft | 9 kts | 283° |
| 2026-05-08 23:54 | -23.01341 | -47.12928 | 2165 ft | 19 kts | 307° |
| 2026-05-08 23:54 | -23.01258 | -47.13046 | 2160 ft | 20 kts | 308° |
| 2026-05-08 23:54 | -23.01173 | -47.13164 | 2159 ft | 20 kts | 306° |
| 2026-05-08 23:55 | -23.01004 | -47.13399 | 2157 ft | 20 kts | 308° |
| 2026-05-08 23:55 | -23.00920 | -47.13517 | 2157 ft | 20 kts | 307° |
| 2026-05-08 23:55 | -23.00835 | -47.13634 | 2155 ft | 20 kts | 306° |
| 2026-05-08 23:55 | -23.00746 | -47.13747 | 2154 ft | 20 kts | 309° |
| 2026-05-08 23:56 | -23.00713 | -47.13885 | 2157 ft | 16 kts | 281° |
| 2026-05-08 23:56 | -23.00678 | -47.14000 | 2154 ft | 15 kts | 298° |
| 2026-05-08 23:56 | -23.00617 | -47.14096 | 2151 ft | 15 kts | 310° |
| 2026-05-08 23:56 | -23.00545 | -47.14155 | 2153 ft | 11 kts | 304° |
| 2026-05-08 23:57 | -23.00516 | -47.14230 | 2152 ft | 11 kts | 294° |
| 2026-05-08 23:57 | -23.00460 | -47.14321 | 2150 ft | 17 kts | 306° |
| 2026-05-08 23:57 | -23.00387 | -47.14421 | 2148 ft | 17 kts | 308° |
| 2026-05-08 23:57 | -23.00315 | -47.14522 | 2147 ft | 17 kts | 308° |
| 2026-05-08 23:58 | -23.00243 | -47.14622 | 2148 ft | 15 kts | 305° |
| 2026-05-08 23:58 | -23.00178 | -47.14712 | 2150 ft | 15 kts | 310° |
| 2026-05-08 23:58 | -23.00114 | -47.14804 | 2149 ft | 15 kts | 304° |
| 2026-05-08 23:58 | -23.00111 | -47.14916 | 2149 ft | 15 kts | 262° |
| 2026-05-08 23:59 | -23.00177 | -47.15001 | 2148 ft | 15 kts | 218° |
| 2026-05-08 23:59 | -23.00277 | -47.15086 | 2147 ft | 21 kts | 216° |
| 2026-05-08 23:59 | -23.00395 | -47.15183 | 2148 ft | 21 kts | 217° |
| 2026-05-08 23:59 | -23.00513 | -47.15279 | 2148 ft | 21 kts | 218° |
| 2026-05-09 00:00 | -23.00630 | -47.15376 | 2146 ft | 21 kts | 213° |
| 2026-05-09 00:00 | -23.00712 | -47.15346 | 2149 ft | 13 kts | 127° |
| 2026-05-09 00:00 | -23.00769 | -47.15270 | 2147 ft | 13 kts | 129° |
| 2026-05-09 00:00 | -23.00846 | -47.15261 | 2151 ft | 13 kts | 223° |
| 2026-05-09 00:01 | -23.00870 | -47.15266 | 2150 ft | 1 kts | 150° |
| 2026-05-09 00:01 | -23.00885 | -47.15248 | 2146 ft | 6 kts | 128° |
| 2026-05-09 00:01 | -23.00914 | -47.15207 | 2147 ft | 8 kts | 126° |
| 2026-05-09 00:01 | -23.00923 | -47.15194 | 2145 ft | 0 kts | 128° |